PWSweather.com
Personal Weather Stations
Station Observations
EI4HQ
Cork Harbour, CobhIE

Cork HarbourCobhIE

Lat: 51.85, Lon: -8.29

Elevation: 252

Station Type: Davis Vantage Pro2

http://www.corkharbourweather.ie

High Low Average
Temperature 45.3°F7.4°C 30.4°F-0.9°C 38.7°F3.7°C
Dew Point 44.2°F6.8°C 27.5°F-2.5°C 36.5°F2.5°C
Winds 8.0 mph 12.9 kmh Calm Calm 4.0 mph WSW6.4 kmh WSW
Wind Gusts 18.0 mph29.0 kmh 1.0 mph1.6 kmh 8.0 mph12.9 kmh
Humidity 96% 84% 92%
Pressure 30.32 in1026.8 mb 30.03 in1016.9 mb -
Precipitation 0.02 in0.5 mm - -
Hour Temp Dew Point Humidity Winds Wind Gusts Pressure Precip Precip Rate Daily Precip Total
12:00 AM 31.6°F-0.2°C 28.6°F-1.9°C 88% 2.0 mph W3.2 kmh W 7.0 mph11.3 kmh 30.32 in1026.8 mb 0.00 in0.0 mm 0.00 in0.0 mm 0.00 in0.0 mm
12:03 AM 31.6°F-0.2°C 28.4°F-2.0°C 88% 3.0 mph W4.8 kmh W 7.0 mph11.3 kmh 30.32 in1026.8 mb 0.00 in0.0 mm 0.00 in0.0 mm 0.00 in0.0 mm
12:06 AM 31.5°F-0.3°C 28.4°F-2.0°C 88% 3.0 mph W4.8 kmh W 7.0 mph11.3 kmh 30.32 in1026.8 mb 0.00 in0.0 mm 0.00 in0.0 mm 0.00 in0.0 mm
12:09 AM 31.6°F-0.2°C 28.8°F-1.8°C 89% 2.0 mph WNW3.2 kmh WNW 6.0 mph9.7 kmh 30.32 in1026.8 mb 0.00 in0.0 mm 0.00 in0.0 mm 0.00 in0.0 mm
12:12 AM 31.6°F-0.2°C 28.8°F-1.8°C 89% 2.0 mph NW3.2 kmh NW 6.0 mph9.7 kmh 30.32 in1026.8 mb 0.00 in0.0 mm 0.00 in0.0 mm 0.00 in0.0 mm
12:15 AM 31.5°F-0.3°C 28.6°F-1.9°C 89% 2.0 mph NW3.2 kmh NW 4.0 mph6.4 kmh 30.32 in1026.8 mb 0.00 in0.0 mm 0.00 in0.0 mm 0.00 in0.0 mm
12:18 AM 31.5°F-0.3°C 28.6°F-1.9°C 89% 2.0 mph NW3.2 kmh NW 4.0 mph6.4 kmh 30.32 in1026.8 mb 0.00 in0.0 mm 0.00 in0.0 mm 0.00 in0.0 mm
12:21 AM 31.5°F-0.3°C 28.6°F-1.9°C 89% 2.0 mph NW3.2 kmh NW 4.0 mph6.4 kmh 30.32 in1026.8 mb 0.00 in0.0 mm 0.00 in0.0 mm 0.00 in0.0 mm
12:24 AM 31.5°F-0.3°C 28.6°F-1.9°C 89% 2.0 mph NW3.2 kmh NW 4.0 mph6.4 kmh 30.32 in1026.8 mb 0.00 in0.0 mm 0.00 in0.0 mm 0.00 in0.0 mm
12:27 AM 31.5°F-0.3°C 28.6°F-1.9°C 89% 2.0 mph NW3.2 kmh NW 4.0 mph6.4 kmh 30.32 in1026.8 mb 0.00 in0.0 mm 0.00 in0.0 mm 0.00 in0.0 mm
12:30 AM 31.3°F-0.4°C 28.4°F-2.0°C 89% 2.0 mph NW3.2 kmh NW 4.0 mph6.4 kmh 30.32 in1026.8 mb 0.00 in0.0 mm 0.00 in0.0 mm 0.00 in0.0 mm
12:33 AM 30.9°F-0.6°C 28.2°F-2.1°C 89% 2.0 mph NW3.2 kmh NW 4.0 mph6.4 kmh 30.32 in1026.8 mb 0.00 in0.0 mm 0.00 in0.0 mm 0.00 in0.0 mm
12:36 AM 30.9°F-0.6°C 28.2°F-2.1°C 89% 3.0 mph NW4.8 kmh NW 5.0 mph8.0 kmh 30.31 in1026.4 mb 0.00 in0.0 mm 0.00 in0.0 mm 0.00 in0.0 mm
12:39 AM 30.9°F-0.6°C 28.0°F-2.2°C 89% 3.0 mph NW4.8 kmh NW 7.0 mph11.3 kmh 30.31 in1026.4 mb 0.00 in0.0 mm 0.00 in0.0 mm 0.00 in0.0 mm
12:42 AM 30.7°F-0.7°C 27.9°F-2.3°C 89% 4.0 mph NW6.4 kmh NW 7.0 mph11.3 kmh 30.31 in1026.4 mb 0.00 in0.0 mm 0.00 in0.0 mm 0.00 in0.0 mm
12:45 AM 30.6°F-0.8°C 27.7°F-2.4°C 89% 4.0 mph NW6.4 kmh NW 8.0 mph12.9 kmh 30.31 in1026.4 mb 0.00 in0.0 mm 0.00 in0.0 mm 0.00 in0.0 mm
12:48 AM 30.4°F-0.9°C 27.5°F-2.5°C 89% 4.0 mph NW6.4 kmh NW 8.0 mph12.9 kmh 30.31 in1026.4 mb 0.00 in0.0 mm 0.00 in0.0 mm 0.00 in0.0 mm
12:51 AM 30.6°F-0.8°C 27.9°F-2.3°C 90% 4.0 mph NW6.4 kmh NW 9.0 mph14.5 kmh 30.32 in1026.8 mb 0.00 in0.0 mm 0.00 in0.0 mm 0.00 in0.0 mm
12:54 AM 30.6°F-0.8°C 27.9°F-2.3°C 90% 4.0 mph NW6.4 kmh NW 9.0 mph14.5 kmh 30.32 in1026.8 mb 0.00 in0.0 mm 0.00 in0.0 mm 0.00 in0.0 mm
12:57 AM 30.4°F-0.9°C 27.9°F-2.3°C 90% 4.0 mph NW6.4 kmh NW 9.0 mph14.5 kmh 30.32 in1026.8 mb 0.00 in0.0 mm 0.00 in0.0 mm 0.00 in0.0 mm
01:00 AM 30.6°F-0.8°C 27.9°F-2.3°C 90% 4.0 mph NW6.4 kmh NW 9.0 mph14.5 kmh 30.31 in1026.4 mb 0.00 in0.0 mm 0.00 in0.0 mm 0.00 in0.0 mm
01:03 AM 30.7°F-0.7°C 28.4°F-2.0°C 91% 4.0 mph NW6.4 kmh NW 9.0 mph14.5 kmh 30.31 in1026.4 mb 0.00 in0.0 mm 0.00 in0.0 mm 0.00 in0.0 mm
01:06 AM 30.9°F-0.6°C 28.8°F-1.8°C 91% 4.0 mph NW6.4 kmh NW 8.0 mph12.9 kmh 30.31 in1026.4 mb 0.00 in0.0 mm 0.00 in0.0 mm 0.00 in0.0 mm
01:09 AM 31.5°F-0.3°C 29.3°F-1.5°C 92% 4.0 mph NW6.4 kmh NW 8.0 mph12.9 kmh 30.31 in1026.4 mb 0.00 in0.0 mm 0.00 in0.0 mm 0.00 in0.0 mm
01:12 AM 31.6°F-0.2°C 29.7°F-1.3°C 92% 4.0 mph NW6.4 kmh NW 8.0 mph12.9 kmh 30.31 in1026.4 mb 0.00 in0.0 mm 0.00 in0.0 mm 0.00 in0.0 mm
01:15 AM 31.8°F-0.1°C 29.8°F-1.2°C 92% 4.0 mph NW6.4 kmh NW 8.0 mph12.9 kmh 30.31 in1026.4 mb 0.00 in0.0 mm 0.00 in0.0 mm 0.00 in0.0 mm
01:18 AM 32.2°F0.1°C 30.0°F-1.1°C 92% 3.0 mph NW4.8 kmh NW 8.0 mph12.9 kmh 30.31 in1026.4 mb 0.00 in0.0 mm 0.00 in0.0 mm 0.00 in0.0 mm
01:21 AM 32.2°F0.1°C 30.2°F-1.0°C 92% 3.0 mph NW4.8 kmh NW 8.0 mph12.9 kmh 30.31 in1026.4 mb 0.00 in0.0 mm 0.00 in0.0 mm 0.00 in0.0 mm
01:24 AM 32.4°F0.2°C 30.2°F-1.0°C 92% 3.0 mph NW4.8 kmh NW 8.0 mph12.9 kmh 30.31 in1026.4 mb 0.00 in0.0 mm 0.00 in0.0 mm 0.00 in0.0 mm
01:27 AM 32.4°F0.2°C 30.4°F-0.9°C 92% 3.0 mph NW4.8 kmh NW 8.0 mph12.9 kmh 30.31 in1026.4 mb 0.00 in0.0 mm 0.00 in0.0 mm 0.00 in0.0 mm
01:30 AM 32.5°F0.3°C 30.4°F-0.9°C 92% 3.0 mph NW4.8 kmh NW 8.0 mph12.9 kmh 30.31 in1026.4 mb 0.00 in0.0 mm 0.00 in0.0 mm 0.00 in0.0 mm
01:33 AM 32.5°F0.3°C 30.6°F-0.8°C 92% 3.0 mph NW4.8 kmh NW 8.0 mph12.9 kmh 30.31 in1026.4 mb 0.00 in0.0 mm 0.00 in0.0 mm 0.00 in0.0 mm
01:36 AM 32.7°F0.4°C 30.7°F-0.7°C 92% 3.0 mph NW4.8 kmh NW 8.0 mph12.9 kmh 30.31 in1026.4 mb 0.00 in0.0 mm 0.00 in0.0 mm 0.00 in0.0 mm
01:39 AM 33.1°F0.6°C 30.9°F-0.6°C 92% 3.0 mph NW4.8 kmh NW 5.0 mph8.0 kmh 30.31 in1026.4 mb 0.00 in0.0 mm 0.00 in0.0 mm 0.00 in0.0 mm
01:42 AM 33.1°F0.6°C 31.1°F-0.5°C 92% 3.0 mph NW4.8 kmh NW 6.0 mph9.7 kmh 30.31 in1026.4 mb 0.00 in0.0 mm 0.00 in0.0 mm 0.00 in0.0 mm
01:45 AM 33.3°F0.7°C 31.1°F-0.5°C 92% 3.0 mph NW4.8 kmh NW 8.0 mph12.9 kmh 30.31 in1026.4 mb 0.00 in0.0 mm 0.00 in0.0 mm 0.00 in0.0 mm
01:48 AM 33.3°F0.7°C 31.1°F-0.5°C 92% 4.0 mph NW6.4 kmh NW 8.0 mph12.9 kmh 30.31 in1026.4 mb 0.00 in0.0 mm 0.00 in0.0 mm 0.00 in0.0 mm
01:51 AM 33.3°F0.7°C 30.9°F-0.6°C 91% 4.0 mph NW6.4 kmh NW 9.0 mph14.5 kmh 30.30 in1026.1 mb 0.00 in0.0 mm 0.00 in0.0 mm 0.00 in0.0 mm
01:54 AM 33.3°F0.7°C 30.9°F-0.6°C 91% 4.0 mph NW6.4 kmh NW 9.0 mph14.5 kmh 30.30 in1026.1 mb 0.00 in0.0 mm 0.00 in0.0 mm 0.00 in0.0 mm
01:57 AM 33.3°F0.7°C 30.9°F-0.6°C 91% 4.0 mph NW6.4 kmh NW 9.0 mph14.5 kmh 30.30 in1026.1 mb 0.00 in0.0 mm 0.00 in0.0 mm 0.00 in0.0 mm
02:00 AM 33.4°F0.8°C 31.1°F-0.5°C 91% 3.0 mph NW4.8 kmh NW 9.0 mph14.5 kmh 30.31 in1026.4 mb 0.00 in0.0 mm 0.00 in0.0 mm 0.00 in0.0 mm
02:03 AM 33.4°F0.8°C 31.1°F-0.5°C 91% 3.0 mph NW4.8 kmh NW 9.0 mph14.5 kmh 30.31 in1026.4 mb 0.00 in0.0 mm 0.00 in0.0 mm 0.00 in0.0 mm
02:06 AM 33.6°F0.9°C 31.3°F-0.4°C 91% 3.0 mph NW4.8 kmh NW 10.0 mph16.1 kmh 30.31 in1026.4 mb 0.00 in0.0 mm 0.00 in0.0 mm 0.00 in0.0 mm
02:09 AM 33.6°F0.9°C 31.3°F-0.4°C 91% 4.0 mph NW6.4 kmh NW 10.0 mph16.1 kmh 30.31 in1026.4 mb 0.00 in0.0 mm 0.00 in0.0 mm 0.00 in0.0 mm
02:12 AM 33.6°F0.9°C 31.3°F-0.4°C 91% 4.0 mph NW6.4 kmh NW 10.0 mph16.1 kmh 30.31 in1026.4 mb 0.00 in0.0 mm 0.00 in0.0 mm 0.00 in0.0 mm
02:15 AM 33.6°F0.9°C 31.3°F-0.4°C 91% 4.0 mph NW6.4 kmh NW 10.0 mph16.1 kmh 30.31 in1026.4 mb 0.00 in0.0 mm 0.00 in0.0 mm 0.00 in0.0 mm
02:18 AM 33.6°F0.9°C 31.3°F-0.4°C 91% 4.0 mph NW6.4 kmh NW 8.0 mph12.9 kmh 30.31 in1026.4 mb 0.00 in0.0 mm 0.00 in0.0 mm 0.00 in0.0 mm
02:21 AM 33.6°F0.9°C 31.3°F-0.4°C 91% 4.0 mph NW6.4 kmh NW 9.0 mph14.5 kmh 30.31 in1026.4 mb 0.00 in0.0 mm 0.00 in0.0 mm 0.00 in0.0 mm
02:24 AM 33.6°F0.9°C 31.3°F-0.4°C 91% 4.0 mph NW6.4 kmh NW 9.0 mph14.5 kmh 30.31 in1026.4 mb 0.00 in0.0 mm 0.00 in0.0 mm 0.00 in0.0 mm
02:27 AM 33.6°F0.9°C 31.3°F-0.4°C 91% 4.0 mph NW6.4 kmh NW 9.0 mph14.5 kmh 30.31 in1026.4 mb 0.00 in0.0 mm 0.00 in0.0 mm 0.00 in0.0 mm
02:30 AM 33.4°F0.8°C 30.9°F-0.6°C 90% 5.0 mph NW8.0 kmh NW 11.0 mph17.7 kmh 30.30 in1026.1 mb 0.00 in0.0 mm 0.00 in0.0 mm 0.00 in0.0 mm
02:33 AM 33.4°F0.8°C 31.1°F-0.5°C 91% 5.0 mph NNW8.0 kmh NNW 11.0 mph17.7 kmh 30.31 in1026.4 mb 0.00 in0.0 mm 0.00 in0.0 mm 0.00 in0.0 mm
02:36 AM 33.3°F0.7°C 30.7°F-0.7°C 90% 6.0 mph NNW9.7 kmh NNW 11.0 mph17.7 kmh 30.30 in1026.1 mb 0.00 in0.0 mm 0.00 in0.0 mm 0.00 in0.0 mm
02:39 AM 33.3°F0.7°C 30.9°F-0.6°C 91% 6.0 mph NNW9.7 kmh NNW 10.0 mph16.1 kmh 30.30 in1026.1 mb 0.00 in0.0 mm 0.00 in0.0 mm 0.00 in0.0 mm
02:42 AM 33.1°F0.6°C 30.7°F-0.7°C 91% 5.0 mph NNW8.0 kmh NNW 10.0 mph16.1 kmh 30.31 in1026.4 mb 0.00 in0.0 mm 0.00 in0.0 mm 0.00 in0.0 mm
02:45 AM 33.1°F0.6°C 30.7°F-0.7°C 91% 4.0 mph NNW6.4 kmh NNW 10.0 mph16.1 kmh 30.31 in1026.4 mb 0.00 in0.0 mm 0.00 in0.0 mm 0.00 in0.0 mm
02:48 AM 32.9°F0.5°C 30.2°F-1.0°C 90% 3.0 mph NW4.8 kmh NW 9.0 mph14.5 kmh 30.31 in1026.4 mb 0.00 in0.0 mm 0.00 in0.0 mm 0.00 in0.0 mm
02:51 AM 32.7°F0.4°C 30.2°F-1.0°C 90% 3.0 mph NNW4.8 kmh NNW 6.0 mph9.7 kmh 30.31 in1026.4 mb 0.00 in0.0 mm 0.00 in0.0 mm 0.00 in0.0 mm
02:54 AM 32.5°F0.3°C 30.0°F-1.1°C 90% 3.0 mph NNW4.8 kmh NNW 6.0 mph9.7 kmh 30.31 in1026.4 mb 0.00 in0.0 mm 0.00 in0.0 mm 0.00 in0.0 mm
02:57 AM 32.4°F0.2°C 29.8°F-1.2°C 90% 3.0 mph NNW4.8 kmh NNW 6.0 mph9.7 kmh 30.31 in1026.4 mb 0.00 in0.0 mm 0.00 in0.0 mm 0.00 in0.0 mm
03:00 AM 32.2°F0.1°C 29.7°F-1.3°C 90% 2.0 mph NNW3.2 kmh NNW 6.0 mph9.7 kmh 30.31 in1026.4 mb 0.00 in0.0 mm 0.00 in0.0 mm 0.00 in0.0 mm
03:03 AM 32.0°F0.0°C 29.5°F-1.4°C 90% 2.0 mph NW3.2 kmh NW 6.0 mph9.7 kmh 30.31 in1026.4 mb 0.00 in0.0 mm 0.00 in0.0 mm 0.00 in0.0 mm
03:06 AM 31.8°F-0.1°C 29.3°F-1.5°C 90% 2.0 mph NW3.2 kmh NW 4.0 mph6.4 kmh 30.30 in1026.1 mb 0.00 in0.0 mm 0.00 in0.0 mm 0.00 in0.0 mm
03:09 AM 31.8°F-0.1°C 29.5°F-1.4°C 91% 2.0 mph NW3.2 kmh NW 4.0 mph6.4 kmh 30.31 in1026.4 mb 0.00 in0.0 mm 0.00 in0.0 mm 0.00 in0.0 mm
03:12 AM 31.6°F-0.2°C 29.3°F-1.5°C 91% 2.0 mph NW3.2 kmh NW 5.0 mph8.0 kmh 30.31 in1026.4 mb 0.00 in0.0 mm 0.00 in0.0 mm 0.00 in0.0 mm
03:15 AM 31.6°F-0.2°C 29.3°F-1.5°C 91% 2.0 mph NW3.2 kmh NW 5.0 mph8.0 kmh 30.31 in1026.4 mb 0.00 in0.0 mm 0.00 in0.0 mm 0.00 in0.0 mm
03:18 AM 31.5°F-0.3°C 29.1°F-1.6°C 91% 2.0 mph NW3.2 kmh NW 5.0 mph8.0 kmh 30.30 in1026.1 mb 0.00 in0.0 mm 0.00 in0.0 mm 0.00 in0.0 mm
03:21 AM 31.5°F-0.3°C 29.1°F-1.6°C 91% 2.0 mph NW3.2 kmh NW 5.0 mph8.0 kmh 30.30 in1026.1 mb 0.00 in0.0 mm 0.00 in0.0 mm 0.00 in0.0 mm
03:24 AM 31.5°F-0.3°C 29.1°F-1.6°C 91% 2.0 mph NW3.2 kmh NW 7.0 mph11.3 kmh 30.30 in1026.1 mb 0.00 in0.0 mm 0.00 in0.0 mm 0.00 in0.0 mm
03:27 AM 31.3°F-0.4°C 28.9°F-1.7°C 91% 3.0 mph NW4.8 kmh NW 7.0 mph11.3 kmh 30.30 in1026.1 mb 0.00 in0.0 mm 0.00 in0.0 mm 0.00 in0.0 mm
03:30 AM 31.3°F-0.4°C 29.3°F-1.5°C 92% 3.0 mph NW4.8 kmh NW 7.0 mph11.3 kmh 30.31 in1026.4 mb 0.00 in0.0 mm 0.00 in0.0 mm 0.00 in0.0 mm
03:33 AM 31.5°F-0.3°C 29.5°F-1.4°C 92% 3.0 mph NW4.8 kmh NW 6.0 mph9.7 kmh 30.31 in1026.4 mb 0.00 in0.0 mm 0.00 in0.0 mm 0.00 in0.0 mm
03:36 AM 31.8°F-0.1°C 29.7°F-1.3°C 92% 4.0 mph NW6.4 kmh NW 8.0 mph12.9 kmh 30.31 in1026.4 mb 0.00 in0.0 mm 0.00 in0.0 mm 0.00 in0.0 mm
03:39 AM 32.0°F0.0°C 30.2°F-1.0°C 93% 4.0 mph NW6.4 kmh NW 8.0 mph12.9 kmh 30.30 in1026.1 mb 0.00 in0.0 mm 0.00 in0.0 mm 0.00 in0.0 mm
03:42 AM 32.2°F0.1°C 30.4°F-0.9°C 93% 3.0 mph NW4.8 kmh NW 8.0 mph12.9 kmh 30.30 in1026.1 mb 0.00 in0.0 mm 0.00 in0.0 mm 0.00 in0.0 mm
03:45 AM 32.4°F0.2°C 30.2°F-1.0°C 92% 3.0 mph NW4.8 kmh NW 8.0 mph12.9 kmh 30.30 in1026.1 mb 0.00 in0.0 mm 0.00 in0.0 mm 0.00 in0.0 mm
03:48 AM 32.5°F0.3°C 30.7°F-0.7°C 93% 4.0 mph NW6.4 kmh NW 9.0 mph14.5 kmh 30.30 in1026.1 mb 0.00 in0.0 mm 0.00 in0.0 mm 0.00 in0.0 mm
03:51 AM 32.7°F0.4°C 30.9°F-0.6°C 93% 4.0 mph NW6.4 kmh NW 9.0 mph14.5 kmh 30.30 in1026.1 mb 0.00 in0.0 mm 0.00 in0.0 mm 0.00 in0.0 mm
03:54 AM 32.7°F0.4°C 30.9°F-0.6°C 93% 4.0 mph NNW6.4 kmh NNW 9.0 mph14.5 kmh 30.30 in1026.1 mb 0.00 in0.0 mm 0.00 in0.0 mm 0.00 in0.0 mm
03:57 AM 32.7°F0.4°C 30.6°F-0.8°C 92% 5.0 mph NNW8.0 kmh NNW 9.0 mph14.5 kmh 30.30 in1026.1 mb 0.00 in0.0 mm 0.00 in0.0 mm 0.00 in0.0 mm
04:00 AM 32.7°F0.4°C 30.6°F-0.8°C 92% 5.0 mph NNW8.0 kmh NNW 9.0 mph14.5 kmh 30.30 in1026.1 mb 0.00 in0.0 mm 0.00 in0.0 mm 0.00 in0.0 mm
04:03 AM 32.7°F0.4°C 30.6°F-0.8°C 92% 5.0 mph NNW8.0 kmh NNW 10.0 mph16.1 kmh 30.30 in1026.1 mb 0.00 in0.0 mm 0.00 in0.0 mm 0.00 in0.0 mm
04:06 AM 32.5°F0.3°C 30.4°F-0.9°C 92% 4.0 mph NNW6.4 kmh NNW 10.0 mph16.1 kmh 30.29 in1025.7 mb 0.00 in0.0 mm 0.00 in0.0 mm 0.00 in0.0 mm
04:09 AM 32.4°F0.2°C 30.4°F-0.9°C 92% 4.0 mph NNW6.4 kmh NNW 10.0 mph16.1 kmh 30.29 in1025.7 mb 0.00 in0.0 mm 0.00 in0.0 mm 0.00 in0.0 mm
04:12 AM 32.4°F0.2°C 30.4°F-0.9°C 92% 3.0 mph NNW4.8 kmh NNW 6.0 mph9.7 kmh 30.29 in1025.7 mb 0.00 in0.0 mm 0.00 in0.0 mm 0.00 in0.0 mm
04:15 AM 32.4°F0.2°C 30.2°F-1.0°C 92% 3.0 mph NW4.8 kmh NW 5.0 mph8.0 kmh 30.29 in1025.7 mb 0.00 in0.0 mm 0.00 in0.0 mm 0.00 in0.0 mm
04:18 AM 32.4°F0.2°C 30.2°F-1.0°C 92% 3.0 mph NW4.8 kmh NW 6.0 mph9.7 kmh 30.30 in1026.1 mb 0.00 in0.0 mm 0.00 in0.0 mm 0.00 in0.0 mm
04:21 AM 32.4°F0.2°C 30.6°F-0.8°C 93% 3.0 mph NW4.8 kmh NW 6.0 mph9.7 kmh 30.30 in1026.1 mb 0.00 in0.0 mm 0.00 in0.0 mm 0.00 in0.0 mm
04:24 AM 32.4°F0.2°C 30.6°F-0.8°C 93% 4.0 mph NW6.4 kmh NW 6.0 mph9.7 kmh 30.29 in1025.7 mb 0.00 in0.0 mm 0.00 in0.0 mm 0.00 in0.0 mm
04:27 AM 32.4°F0.2°C 30.6°F-0.8°C 93% 4.0 mph NNW6.4 kmh NNW 6.0 mph9.7 kmh 30.29 in1025.7 mb 0.00 in0.0 mm 0.00 in0.0 mm 0.00 in0.0 mm
04:30 AM 32.4°F0.2°C 30.6°F-0.8°C 93% 4.0 mph NNW6.4 kmh NNW 6.0 mph9.7 kmh 30.29 in1025.7 mb 0.00 in0.0 mm 0.00 in0.0 mm 0.00 in0.0 mm
04:33 AM 32.4°F0.2°C 30.6°F-0.8°C 93% 4.0 mph NNW6.4 kmh NNW 8.0 mph12.9 kmh 30.29 in1025.7 mb 0.00 in0.0 mm 0.00 in0.0 mm 0.00 in0.0 mm
04:36 AM 32.5°F0.3°C 30.7°F-0.7°C 93% 4.0 mph NNW6.4 kmh NNW 8.0 mph12.9 kmh 30.29 in1025.7 mb 0.00 in0.0 mm 0.00 in0.0 mm 0.00 in0.0 mm
04:39 AM 32.5°F0.3°C 30.7°F-0.7°C 93% 4.0 mph NNW6.4 kmh NNW 8.0 mph12.9 kmh 30.29 in1025.7 mb 0.00 in0.0 mm 0.00 in0.0 mm 0.00 in0.0 mm
04:42 AM 32.5°F0.3°C 30.7°F-0.7°C 93% 4.0 mph NNW6.4 kmh NNW 8.0 mph12.9 kmh 30.29 in1025.7 mb 0.00 in0.0 mm 0.00 in0.0 mm 0.00 in0.0 mm
04:45 AM 32.7°F0.4°C 30.9°F-0.6°C 93% 4.0 mph NNW6.4 kmh NNW 6.0 mph9.7 kmh 30.29 in1025.7 mb 0.00 in0.0 mm 0.00 in0.0 mm 0.00 in0.0 mm
04:48 AM 32.7°F0.4°C 30.9°F-0.6°C 93% 4.0 mph NW6.4 kmh NW 6.0 mph9.7 kmh 30.29 in1025.7 mb 0.00 in0.0 mm 0.00 in0.0 mm 0.00 in0.0 mm
04:51 AM 32.7°F0.4°C 30.9°F-0.6°C 93% 3.0 mph NW4.8 kmh NW 8.0 mph12.9 kmh 30.29 in1025.7 mb 0.00 in0.0 mm 0.00 in0.0 mm 0.00 in0.0 mm
04:54 AM 32.7°F0.4°C 30.9°F-0.6°C 93% 4.0 mph NNW6.4 kmh NNW 8.0 mph12.9 kmh 30.29 in1025.7 mb 0.00 in0.0 mm 0.00 in0.0 mm 0.00 in0.0 mm
04:57 AM 32.7°F0.4°C 30.9°F-0.6°C 93% 4.0 mph NNW6.4 kmh NNW 8.0 mph12.9 kmh 30.29 in1025.7 mb 0.00 in0.0 mm 0.00 in0.0 mm 0.00 in0.0 mm
05:00 AM 32.9°F0.5°C 31.1°F-0.5°C 93% 4.0 mph NW6.4 kmh NW 8.0 mph12.9 kmh 30.29 in1025.7 mb 0.00 in0.0 mm 0.00 in0.0 mm 0.00 in0.0 mm
05:03 AM 32.9°F0.5°C 31.1°F-0.5°C 93% 4.0 mph NW6.4 kmh NW 8.0 mph12.9 kmh 30.28 in1025.4 mb 0.00 in0.0 mm 0.00 in0.0 mm 0.00 in0.0 mm
05:06 AM 32.9°F0.5°C 31.1°F-0.5°C 93% 4.0 mph NW6.4 kmh NW 8.0 mph12.9 kmh 30.29 in1025.7 mb 0.00 in0.0 mm 0.00 in0.0 mm 0.00 in0.0 mm
05:09 AM 32.9°F0.5°C 31.1°F-0.5°C 93% 4.0 mph NW6.4 kmh NW 8.0 mph12.9 kmh 30.29 in1025.7 mb 0.00 in0.0 mm 0.00 in0.0 mm 0.00 in0.0 mm
05:12 AM 33.1°F0.6°C 31.3°F-0.4°C 93% 4.0 mph NW6.4 kmh NW 6.0 mph9.7 kmh 30.29 in1025.7 mb 0.00 in0.0 mm 0.00 in0.0 mm 0.00 in0.0 mm
05:15 AM 32.9°F0.5°C 31.1°F-0.5°C 93% 4.0 mph NW6.4 kmh NW 6.0 mph9.7 kmh 30.29 in1025.7 mb 0.00 in0.0 mm 0.00 in0.0 mm 0.00 in0.0 mm
05:18 AM 32.9°F0.5°C 31.1°F-0.5°C 93% 4.0 mph NW6.4 kmh NW 6.0 mph9.7 kmh 30.28 in1025.4 mb 0.00 in0.0 mm 0.00 in0.0 mm 0.00 in0.0 mm
05:21 AM 32.7°F0.4°C 30.9°F-0.6°C 93% 3.0 mph NW4.8 kmh NW 6.0 mph9.7 kmh 30.29 in1025.7 mb 0.00 in0.0 mm 0.00 in0.0 mm 0.00 in0.0 mm
05:24 AM 32.7°F0.4°C 30.9°F-0.6°C 93% 3.0 mph NW4.8 kmh NW 6.0 mph9.7 kmh 30.29 in1025.7 mb 0.00 in0.0 mm 0.00 in0.0 mm 0.00 in0.0 mm
05:27 AM 32.7°F0.4°C 30.9°F-0.6°C 93% 3.0 mph NW4.8 kmh NW 6.0 mph9.7 kmh 30.29 in1025.7 mb 0.00 in0.0 mm 0.00 in0.0 mm 0.00 in0.0 mm
05:30 AM 32.7°F0.4°C 30.9°F-0.6°C 93% 3.0 mph NW4.8 kmh NW 6.0 mph9.7 kmh 30.29 in1025.7 mb 0.00 in0.0 mm 0.00 in0.0 mm 0.00 in0.0 mm
05:33 AM 32.7°F0.4°C 30.9°F-0.6°C 93% 3.0 mph NW4.8 kmh NW 6.0 mph9.7 kmh 30.29 in1025.7 mb 0.00 in0.0 mm 0.00 in0.0 mm 0.00 in0.0 mm
05:36 AM 32.7°F0.4°C 31.3°F-0.4°C 94% 3.0 mph NW4.8 kmh NW 7.0 mph11.3 kmh 30.29 in1025.7 mb 0.00 in0.0 mm 0.00 in0.0 mm 0.00 in0.0 mm
05:39 AM 32.9°F0.5°C 31.1°F-0.5°C 93% 3.0 mph NW4.8 kmh NW 7.0 mph11.3 kmh 30.29 in1025.7 mb 0.00 in0.0 mm 0.00 in0.0 mm 0.00 in0.0 mm
05:42 AM 33.1°F0.6°C 31.5°F-0.3°C 94% 3.0 mph NW4.8 kmh NW 7.0 mph11.3 kmh 30.29 in1025.7 mb 0.00 in0.0 mm 0.00 in0.0 mm 0.00 in0.0 mm
05:45 AM 33.1°F0.6°C 31.6°F-0.2°C 94% 2.0 mph NW3.2 kmh NW 7.0 mph11.3 kmh 30.29 in1025.7 mb 0.00 in0.0 mm 0.00 in0.0 mm 0.00 in0.0 mm
05:48 AM 33.1°F0.6°C 31.6°F-0.2°C 94% 2.0 mph NW3.2 kmh NW 4.0 mph6.4 kmh 30.29 in1025.7 mb 0.00 in0.0 mm 0.00 in0.0 mm 0.00 in0.0 mm
05:51 AM 33.1°F0.6°C 31.6°F-0.2°C 94% 2.0 mph NW3.2 kmh NW 4.0 mph6.4 kmh 30.29 in1025.7 mb 0.00 in0.0 mm 0.00 in0.0 mm 0.00 in0.0 mm
05:54 AM 33.1°F0.6°C 31.6°F-0.2°C 94% 2.0 mph NW3.2 kmh NW 4.0 mph6.4 kmh 30.29 in1025.7 mb 0.00 in0.0 mm 0.00 in0.0 mm 0.00 in0.0 mm
05:57 AM 33.3°F0.7°C 31.6°F-0.2°C 94% 2.0 mph NW3.2 kmh NW 4.0 mph6.4 kmh 30.28 in1025.4 mb 0.00 in0.0 mm 0.00 in0.0 mm 0.00 in0.0 mm
06:00 AM 33.1°F0.6°C 31.3°F-0.4°C 93% 2.0 mph NW3.2 kmh NW 4.0 mph6.4 kmh 30.28 in1025.4 mb 0.00 in0.0 mm 0.00 in0.0 mm 0.00 in0.0 mm
06:03 AM 33.1°F0.6°C 31.3°F-0.4°C 93% 2.0 mph NW3.2 kmh NW 4.0 mph6.4 kmh 30.28 in1025.4 mb 0.00 in0.0 mm 0.00 in0.0 mm 0.00 in0.0 mm
06:06 AM 33.1°F0.6°C 31.3°F-0.4°C 93% 2.0 mph NW3.2 kmh NW 4.0 mph6.4 kmh 30.28 in1025.4 mb 0.00 in0.0 mm 0.00 in0.0 mm 0.00 in0.0 mm
06:09 AM 32.9°F0.5°C 31.1°F-0.5°C 93% 3.0 mph NW4.8 kmh NW 5.0 mph8.0 kmh 30.28 in1025.4 mb 0.00 in0.0 mm 0.00 in0.0 mm 0.00 in0.0 mm
06:12 AM 32.9°F0.5°C 31.1°F-0.5°C 93% 3.0 mph NW4.8 kmh NW 5.0 mph8.0 kmh 30.28 in1025.4 mb 0.00 in0.0 mm 0.00 in0.0 mm 0.00 in0.0 mm
06:15 AM 32.7°F0.4°C 31.3°F-0.4°C 94% 3.0 mph NNW4.8 kmh NNW 5.0 mph8.0 kmh 30.28 in1025.4 mb 0.00 in0.0 mm 0.00 in0.0 mm 0.00 in0.0 mm
06:18 AM 32.9°F0.5°C 31.3°F-0.4°C 94% 3.0 mph NNW4.8 kmh NNW 5.0 mph8.0 kmh 30.28 in1025.4 mb 0.00 in0.0 mm 0.00 in0.0 mm 0.00 in0.0 mm
06:21 AM 32.7°F0.4°C 31.3°F-0.4°C 94% 3.0 mph NNW4.8 kmh NNW 5.0 mph8.0 kmh 30.28 in1025.4 mb 0.00 in0.0 mm 0.00 in0.0 mm 0.00 in0.0 mm
06:24 AM 32.7°F0.4°C 31.3°F-0.4°C 94% 3.0 mph NNW4.8 kmh NNW 5.0 mph8.0 kmh 30.28 in1025.4 mb 0.00 in0.0 mm 0.00 in0.0 mm 0.00 in0.0 mm
06:27 AM 32.7°F0.4°C 30.9°F-0.6°C 93% 3.0 mph NNW4.8 kmh NNW 5.0 mph8.0 kmh 30.28 in1025.4 mb 0.00 in0.0 mm 0.00 in0.0 mm 0.00 in0.0 mm
06:30 AM 32.7°F0.4°C 30.9°F-0.6°C 93% 3.0 mph NW4.8 kmh NW 4.0 mph6.4 kmh 30.28 in1025.4 mb 0.00 in0.0 mm 0.00 in0.0 mm 0.00 in0.0 mm
06:33 AM 32.7°F0.4°C 30.9°F-0.6°C 93% 3.0 mph NW4.8 kmh NW 5.0 mph8.0 kmh 30.28 in1025.4 mb 0.00 in0.0 mm 0.00 in0.0 mm 0.00 in0.0 mm
06:36 AM 32.7°F0.4°C 31.1°F-0.5°C 94% 3.0 mph NW4.8 kmh NW 5.0 mph8.0 kmh 30.28 in1025.4 mb 0.00 in0.0 mm 0.00 in0.0 mm 0.00 in0.0 mm
06:39 AM 32.7°F0.4°C 31.1°F-0.5°C 94% 3.0 mph NW4.8 kmh NW 5.0 mph8.0 kmh 30.28 in1025.4 mb 0.00 in0.0 mm 0.00 in0.0 mm 0.00 in0.0 mm
06:42 AM 32.7°F0.4°C 31.3°F-0.4°C 94% 3.0 mph NW4.8 kmh NW 5.0 mph8.0 kmh 30.28 in1025.4 mb 0.00 in0.0 mm 0.00 in0.0 mm 0.00 in0.0 mm
06:45 AM 32.7°F0.4°C 31.3°F-0.4°C 94% 3.0 mph NNW4.8 kmh NNW 5.0 mph8.0 kmh 30.28 in1025.4 mb 0.00 in0.0 mm 0.00 in0.0 mm 0.00 in0.0 mm
06:48 AM 32.7°F0.4°C 31.3°F-0.4°C 94% 3.0 mph NNW4.8 kmh NNW 6.0 mph9.7 kmh 30.28 in1025.4 mb 0.00 in0.0 mm 0.00 in0.0 mm 0.00 in0.0 mm
06:51 AM 32.7°F0.4°C 31.1°F-0.5°C 94% 3.0 mph NNW4.8 kmh NNW 6.0 mph9.7 kmh 30.28 in1025.4 mb 0.00 in0.0 mm 0.00 in0.0 mm 0.00 in0.0 mm
06:54 AM 32.7°F0.4°C 31.1°F-0.5°C 94% 3.0 mph NNW4.8 kmh NNW 6.0 mph9.7 kmh 30.28 in1025.4 mb 0.00 in0.0 mm 0.00 in0.0 mm 0.00 in0.0 mm
06:57 AM 32.7°F0.4°C 31.1°F-0.5°C 94% 3.0 mph NNW4.8 kmh NNW 6.0 mph9.7 kmh 30.28 in1025.4 mb 0.00 in0.0 mm 0.00 in0.0 mm 0.00 in0.0 mm
07:00 AM 32.7°F0.4°C 31.1°F-0.5°C 94% 3.0 mph NNW4.8 kmh NNW 6.0 mph9.7 kmh 30.28 in1025.4 mb 0.00 in0.0 mm 0.00 in0.0 mm 0.00 in0.0 mm
07:03 AM 32.7°F0.4°C 31.3°F-0.4°C 94% 3.0 mph NNW4.8 kmh NNW 6.0 mph9.7 kmh 30.28 in1025.4 mb 0.00 in0.0 mm 0.00 in0.0 mm 0.00 in0.0 mm
07:06 AM 32.7°F0.4°C 31.3°F-0.4°C 94% 3.0 mph NNW4.8 kmh NNW 6.0 mph9.7 kmh 30.28 in1025.4 mb 0.00 in0.0 mm 0.00 in0.0 mm 0.00 in0.0 mm
07:09 AM 32.9°F0.5°C 31.3°F-0.4°C 94% 2.0 mph NW3.2 kmh NW 5.0 mph8.0 kmh 30.28 in1025.4 mb 0.00 in0.0 mm 0.00 in0.0 mm 0.00 in0.0 mm
07:12 AM 33.1°F0.6°C 31.5°F-0.3°C 94% 2.0 mph NW3.2 kmh NW 4.0 mph6.4 kmh 30.28 in1025.4 mb 0.00 in0.0 mm 0.00 in0.0 mm 0.00 in0.0 mm
07:15 AM 33.1°F0.6°C 31.6°F-0.2°C 94% 2.0 mph NW3.2 kmh NW 4.0 mph6.4 kmh 30.28 in1025.4 mb 0.00 in0.0 mm 0.00 in0.0 mm 0.00 in0.0 mm
07:18 AM 33.1°F0.6°C 31.6°F-0.2°C 94% 2.0 mph NW3.2 kmh NW 4.0 mph6.4 kmh 30.28 in1025.4 mb 0.00 in0.0 mm 0.00 in0.0 mm 0.00 in0.0 mm
07:21 AM 33.3°F0.7°C 31.6°F-0.2°C 94% 2.0 mph NW3.2 kmh NW 4.0 mph6.4 kmh 30.28 in1025.4 mb 0.00 in0.0 mm 0.00 in0.0 mm 0.00 in0.0 mm
07:24 AM 33.3°F0.7°C 31.8°F-0.1°C 94% 2.0 mph NW3.2 kmh NW 3.0 mph4.8 kmh 30.28 in1025.4 mb 0.00 in0.0 mm 0.00 in0.0 mm 0.00 in0.0 mm
07:27 AM 33.3°F0.7°C 31.8°F-0.1°C 94% 2.0 mph NW3.2 kmh NW 3.0 mph4.8 kmh 30.28 in1025.4 mb 0.00 in0.0 mm 0.00 in0.0 mm 0.00 in0.0 mm
07:30 AM 33.4°F0.8°C 31.8°F-0.1°C 94% 2.0 mph NW3.2 kmh NW 3.0 mph4.8 kmh 30.28 in1025.4 mb 0.00 in0.0 mm 0.00 in0.0 mm 0.00 in0.0 mm
07:33 AM 33.4°F0.8°C 31.8°F-0.1°C 94% 2.0 mph NW3.2 kmh NW 3.0 mph4.8 kmh 30.28 in1025.4 mb 0.00 in0.0 mm 0.00 in0.0 mm 0.00 in0.0 mm
07:36 AM 33.4°F0.8°C 31.8°F-0.1°C 94% 2.0 mph NW3.2 kmh NW 5.0 mph8.0 kmh 30.28 in1025.4 mb 0.00 in0.0 mm 0.00 in0.0 mm 0.00 in0.0 mm
07:39 AM 33.4°F0.8°C 32.0°F0.0°C 94% 3.0 mph NNW4.8 kmh NNW 5.0 mph8.0 kmh 30.28 in1025.4 mb 0.00 in0.0 mm 0.00 in0.0 mm 0.00 in0.0 mm
07:42 AM 33.4°F0.8°C 32.0°F0.0°C 94% 3.0 mph NNW4.8 kmh NNW 5.0 mph8.0 kmh 30.28 in1025.4 mb 0.00 in0.0 mm 0.00 in0.0 mm 0.00 in0.0 mm
07:45 AM 33.4°F0.8°C 32.0°F0.0°C 94% 3.0 mph NNW4.8 kmh NNW 4.0 mph6.4 kmh 30.28 in1025.4 mb 0.00 in0.0 mm 0.00 in0.0 mm 0.00 in0.0 mm
07:48 AM 33.4°F0.8°C 32.0°F0.0°C 94% 3.0 mph NW4.8 kmh NW 4.0 mph6.4 kmh 30.28 in1025.4 mb 0.00 in0.0 mm 0.00 in0.0 mm 0.00 in0.0 mm
07:51 AM 33.4°F0.8°C 32.0°F0.0°C 94% 2.0 mph NW3.2 kmh NW 4.0 mph6.4 kmh 30.28 in1025.4 mb 0.00 in0.0 mm 0.00 in0.0 mm 0.00 in0.0 mm
07:54 AM 33.6°F0.9°C 32.0°F0.0°C 94% 3.0 mph NW4.8 kmh NW 5.0 mph8.0 kmh 30.28 in1025.4 mb 0.00 in0.0 mm 0.00 in0.0 mm 0.00 in0.0 mm
07:57 AM 33.6°F0.9°C 32.0°F0.0°C 94% 3.0 mph NNW4.8 kmh NNW 5.0 mph8.0 kmh 30.28 in1025.4 mb 0.00 in0.0 mm 0.00 in0.0 mm 0.00 in0.0 mm
08:00 AM 33.6°F0.9°C 32.0°F0.0°C 94% 3.0 mph NNW4.8 kmh NNW 5.0 mph8.0 kmh 30.28 in1025.4 mb 0.00 in0.0 mm 0.00 in0.0 mm 0.00 in0.0 mm
08:03 AM 33.6°F0.9°C 32.2°F0.1°C 94% 2.0 mph NNW3.2 kmh NNW 4.0 mph6.4 kmh 30.28 in1025.4 mb 0.00 in0.0 mm 0.00 in0.0 mm 0.00 in0.0 mm
08:06 AM 33.6°F0.9°C 32.2°F0.1°C 94% 2.0 mph NNW3.2 kmh NNW 4.0 mph6.4 kmh 30.28 in1025.4 mb 0.00 in0.0 mm 0.00 in0.0 mm 0.00 in0.0 mm
08:09 AM 33.8°F1.0°C 32.2°F0.1°C 94% 2.0 mph NW3.2 kmh NW 3.0 mph4.8 kmh 30.28 in1025.4 mb 0.00 in0.0 mm 0.00 in0.0 mm 0.00 in0.0 mm
08:12 AM 33.8°F1.0°C 32.2°F0.1°C 94% 2.0 mph NW3.2 kmh NW 3.0 mph4.8 kmh 30.29 in1025.7 mb 0.00 in0.0 mm 0.00 in0.0 mm 0.00 in0.0 mm
08:15 AM 33.8°F1.0°C 32.2°F0.1°C 94% 2.0 mph NW3.2 kmh NW 4.0 mph6.4 kmh 30.28 in1025.4 mb 0.00 in0.0 mm 0.00 in0.0 mm 0.00 in0.0 mm
08:18 AM 34.0°F1.1°C 32.4°F0.2°C 94% 3.0 mph NW4.8 kmh NW 5.0 mph8.0 kmh 30.28 in1025.4 mb 0.00 in0.0 mm 0.00 in0.0 mm 0.00 in0.0 mm
08:21 AM 34.0°F1.1°C 32.4°F0.2°C 94% 3.0 mph NNW4.8 kmh NNW 5.0 mph8.0 kmh 30.29 in1025.7 mb 0.00 in0.0 mm 0.00 in0.0 mm 0.00 in0.0 mm
08:24 AM 34.0°F1.1°C 32.5°F0.3°C 94% 4.0 mph NNW6.4 kmh NNW 6.0 mph9.7 kmh 30.28 in1025.4 mb 0.00 in0.0 mm 0.00 in0.0 mm 0.00 in0.0 mm
08:27 AM 34.0°F1.1°C 32.5°F0.3°C 94% 4.0 mph NNW6.4 kmh NNW 6.0 mph9.7 kmh 30.28 in1025.4 mb 0.00 in0.0 mm 0.00 in0.0 mm 0.00 in0.0 mm
08:30 AM 34.2°F1.2°C 32.5°F0.3°C 94% 4.0 mph NNW6.4 kmh NNW 6.0 mph9.7 kmh 30.28 in1025.4 mb 0.00 in0.0 mm 0.00 in0.0 mm 0.00 in0.0 mm
08:33 AM 34.2°F1.2°C 32.5°F0.3°C 94% 4.0 mph NNW6.4 kmh NNW 6.0 mph9.7 kmh 30.28 in1025.4 mb 0.00 in0.0 mm 0.00 in0.0 mm 0.00 in0.0 mm
08:36 AM 34.2°F1.2°C 32.5°F0.3°C 94% 3.0 mph NNW4.8 kmh NNW 6.0 mph9.7 kmh 30.29 in1025.7 mb 0.00 in0.0 mm 0.00 in0.0 mm 0.00 in0.0 mm
08:39 AM 34.2°F1.2°C 32.7°F0.4°C 94% 2.0 mph NNW3.2 kmh NNW 5.0 mph8.0 kmh 30.28 in1025.4 mb 0.00 in0.0 mm 0.00 in0.0 mm 0.00 in0.0 mm
08:42 AM 34.2°F1.2°C 32.7°F0.4°C 94% 2.0 mph NW3.2 kmh NW 4.0 mph6.4 kmh 30.28 in1025.4 mb 0.00 in0.0 mm 0.00 in0.0 mm 0.00 in0.0 mm
08:45 AM 34.2°F1.2°C 32.7°F0.4°C 94% 2.0 mph NW3.2 kmh NW 4.0 mph6.4 kmh 30.29 in1025.7 mb 0.00 in0.0 mm 0.00 in0.0 mm 0.00 in0.0 mm
08:48 AM 34.2°F1.2°C 32.7°F0.4°C 94% 2.0 mph NW3.2 kmh NW 4.0 mph6.4 kmh 30.29 in1025.7 mb 0.00 in0.0 mm 0.00 in0.0 mm 0.00 in0.0 mm
08:51 AM 34.2°F1.2°C 32.9°F0.5°C 95% 2.0 mph NW3.2 kmh NW 4.0 mph6.4 kmh 30.28 in1025.4 mb 0.00 in0.0 mm 0.00 in0.0 mm 0.00 in0.0 mm
08:54 AM 34.2°F1.2°C 32.9°F0.5°C 95% 2.0 mph NNW3.2 kmh NNW 4.0 mph6.4 kmh 30.28 in1025.4 mb 0.00 in0.0 mm 0.00 in0.0 mm 0.00 in0.0 mm
08:57 AM 34.3°F1.3°C 33.1°F0.6°C 95% 2.0 mph NNW3.2 kmh NNW 4.0 mph6.4 kmh 30.28 in1025.4 mb 0.00 in0.0 mm 0.00 in0.0 mm 0.00 in0.0 mm
09:00 AM 34.3°F1.3°C 33.1°F0.6°C 95% 2.0 mph NNW3.2 kmh NNW 5.0 mph8.0 kmh 30.28 in1025.4 mb 0.00 in0.0 mm 0.00 in0.0 mm 0.00 in0.0 mm
09:03 AM 34.5°F1.4°C 33.3°F0.7°C 95% 3.0 mph NNW4.8 kmh NNW 5.0 mph8.0 kmh 30.28 in1025.4 mb 0.00 in0.0 mm 0.00 in0.0 mm 0.00 in0.0 mm
09:06 AM 34.5°F1.4°C 33.3°F0.7°C 95% 3.0 mph NNW4.8 kmh NNW 5.0 mph8.0 kmh 30.28 in1025.4 mb 0.00 in0.0 mm 0.00 in0.0 mm 0.00 in0.0 mm
09:09 AM 34.7°F1.5°C 33.4°F0.8°C 95% 3.0 mph NNW4.8 kmh NNW 5.0 mph8.0 kmh 30.29 in1025.7 mb 0.00 in0.0 mm 0.00 in0.0 mm 0.00 in0.0 mm
09:12 AM 34.9°F1.6°C 33.4°F0.8°C 95% 3.0 mph NNW4.8 kmh NNW 5.0 mph8.0 kmh 30.28 in1025.4 mb 0.00 in0.0 mm 0.00 in0.0 mm 0.00 in0.0 mm
09:15 AM 34.9°F1.6°C 33.4°F0.8°C 95% 2.0 mph NNW3.2 kmh NNW 3.0 mph4.8 kmh 30.29 in1025.7 mb 0.00 in0.0 mm 0.00 in0.0 mm 0.00 in0.0 mm
09:18 AM 34.9°F1.6°C 33.6°F0.9°C 95% 2.0 mph NNW3.2 kmh NNW 3.0 mph4.8 kmh 30.29 in1025.7 mb 0.00 in0.0 mm 0.00 in0.0 mm 0.00 in0.0 mm
09:21 AM 35.1°F1.7°C 33.8°F1.0°C 95% 1.0 mph NNW1.6 kmh NNW 3.0 mph4.8 kmh 30.29 in1025.7 mb 0.00 in0.0 mm 0.00 in0.0 mm 0.00 in0.0 mm
09:24 AM 35.1°F1.7°C 33.8°F1.0°C 95% 1.0 mph NNW1.6 kmh NNW 3.0 mph4.8 kmh 30.29 in1025.7 mb 0.00 in0.0 mm 0.00 in0.0 mm 0.00 in0.0 mm
09:27 AM 35.1°F1.7°C 33.8°F1.0°C 95% 1.0 mph NW1.6 kmh NW 3.0 mph4.8 kmh 30.29 in1025.7 mb 0.00 in0.0 mm 0.00 in0.0 mm 0.00 in0.0 mm
09:30 AM 35.1°F1.7°C 33.8°F1.0°C 95% 1.0 mph NW1.6 kmh NW 3.0 mph4.8 kmh 30.29 in1025.7 mb 0.00 in0.0 mm 0.00 in0.0 mm 0.00 in0.0 mm
09:33 AM 35.2°F1.8°C 34.0°F1.1°C 95% 1.0 mph WNW1.6 kmh WNW 3.0 mph4.8 kmh 30.28 in1025.4 mb 0.00 in0.0 mm 0.00 in0.0 mm 0.00 in0.0 mm
09:36 AM 35.2°F1.8°C 34.0°F1.1°C 95% 1.0 mph W1.6 kmh W 4.0 mph6.4 kmh 30.28 in1025.4 mb 0.00 in0.0 mm 0.00 in0.0 mm 0.00 in0.0 mm
09:39 AM 35.4°F1.9°C 34.2°F1.2°C 95% 1.0 mph W1.6 kmh W 4.0 mph6.4 kmh 30.28 in1025.4 mb 0.00 in0.0 mm 0.00 in0.0 mm 0.00 in0.0 mm
09:42 AM 35.4°F1.9°C 34.2°F1.2°C 95% 1.0 mph W1.6 kmh W 4.0 mph6.4 kmh 30.28 in1025.4 mb 0.00 in0.0 mm 0.00 in0.0 mm 0.00 in0.0 mm
09:45 AM 35.6°F2.0°C 34.3°F1.3°C 95% 1.0 mph W1.6 kmh W 2.0 mph3.2 kmh 30.28 in1025.4 mb 0.00 in0.0 mm 0.00 in0.0 mm 0.00 in0.0 mm
09:48 AM 35.8°F2.1°C 34.3°F1.3°C 95% 1.0 mph W1.6 kmh W 2.0 mph3.2 kmh 30.28 in1025.4 mb 0.00 in0.0 mm 0.00 in0.0 mm 0.00 in0.0 mm
09:51 AM 35.8°F2.1°C 34.5°F1.4°C 95% 1.0 mph W1.6 kmh W 2.0 mph3.2 kmh 30.28 in1025.4 mb 0.00 in0.0 mm 0.00 in0.0 mm 0.00 in0.0 mm
09:54 AM 36.0°F2.2°C 34.5°F1.4°C 95% 1.0 mph W1.6 kmh W 2.0 mph3.2 kmh 30.28 in1025.4 mb 0.00 in0.0 mm 0.00 in0.0 mm 0.00 in0.0 mm
09:57 AM 36.0°F2.2°C 34.7°F1.5°C 95% 1.0 mph W1.6 kmh W 2.0 mph3.2 kmh 30.28 in1025.4 mb 0.00 in0.0 mm 0.00 in0.0 mm 0.00 in0.0 mm
10:00 AM 36.1°F2.3°C 34.9°F1.6°C 95% 1.0 mph W1.6 kmh W 2.0 mph3.2 kmh 30.28 in1025.4 mb 0.00 in0.0 mm 0.00 in0.0 mm 0.00 in0.0 mm
10:03 AM 36.3°F2.4°C 35.1°F1.7°C 95% 1.0 mph W1.6 kmh W 2.0 mph3.2 kmh 30.28 in1025.4 mb 0.00 in0.0 mm 0.00 in0.0 mm 0.00 in0.0 mm
10:06 AM 36.3°F2.4°C 35.1°F1.7°C 95% 1.0 mph W1.6 kmh W 2.0 mph3.2 kmh 30.28 in1025.4 mb 0.00 in0.0 mm 0.00 in0.0 mm 0.00 in0.0 mm
10:09 AM 36.5°F2.5°C 35.2°F1.8°C 95% Calm Calm 2.0 mph3.2 kmh 30.28 in1025.4 mb 0.00 in0.0 mm 0.00 in0.0 mm 0.00 in0.0 mm
10:12 AM 36.5°F2.5°C 35.2°F1.8°C 95% Calm Calm 2.0 mph3.2 kmh 30.28 in1025.4 mb 0.00 in0.0 mm 0.00 in0.0 mm 0.00 in0.0 mm
10:15 AM 36.7°F2.6°C 35.4°F1.9°C 95% Calm Calm 2.0 mph3.2 kmh 30.28 in1025.4 mb 0.00 in0.0 mm 0.00 in0.0 mm 0.00 in0.0 mm
10:18 AM 36.7°F2.6°C 35.4°F1.9°C 95% Calm Calm 2.0 mph3.2 kmh 30.28 in1025.4 mb 0.00 in0.0 mm 0.00 in0.0 mm 0.00 in0.0 mm
10:21 AM 36.9°F2.7°C 35.4°F1.9°C 95% Calm Calm 1.0 mph1.6 kmh 30.28 in1025.4 mb 0.00 in0.0 mm 0.00 in0.0 mm 0.00 in0.0 mm
10:24 AM 36.9°F2.7°C 35.6°F2.0°C 95% Calm Calm 3.0 mph4.8 kmh 30.28 in1025.4 mb 0.00 in0.0 mm 0.00 in0.0 mm 0.00 in0.0 mm
10:27 AM 37.0°F2.8°C 35.8°F2.1°C 95% 1.0 mph WNW1.6 kmh WNW 3.0 mph4.8 kmh 30.27 in1025.1 mb 0.00 in0.0 mm 0.00 in0.0 mm 0.00 in0.0 mm
10:30 AM 37.0°F2.8°C 35.8°F2.1°C 95% 2.0 mph NW3.2 kmh NW 4.0 mph6.4 kmh 30.27 in1025.1 mb 0.00 in0.0 mm 0.00 in0.0 mm 0.00 in0.0 mm
10:33 AM 37.2°F2.9°C 36.0°F2.2°C 95% 2.0 mph NW3.2 kmh NW 4.0 mph6.4 kmh 30.27 in1025.1 mb 0.00 in0.0 mm 0.00 in0.0 mm 0.00 in0.0 mm
10:36 AM 37.4°F3.0°C 36.1°F2.3°C 95% 2.0 mph NW3.2 kmh NW 4.0 mph6.4 kmh 30.27 in1025.1 mb 0.00 in0.0 mm 0.00 in0.0 mm 0.00 in0.0 mm
10:39 AM 37.6°F3.1°C 36.1°F2.3°C 95% 2.0 mph NNW3.2 kmh NNW 4.0 mph6.4 kmh 30.27 in1025.1 mb 0.00 in0.0 mm 0.00 in0.0 mm 0.00 in0.0 mm
10:42 AM 37.8°F3.2°C 36.3°F2.4°C 95% 2.0 mph NNW3.2 kmh NNW 3.0 mph4.8 kmh 30.27 in1025.1 mb 0.00 in0.0 mm 0.00 in0.0 mm 0.00 in0.0 mm
10:45 AM 37.8°F3.2°C 36.5°F2.5°C 95% 1.0 mph NNW1.6 kmh NNW 3.0 mph4.8 kmh 30.27 in1025.1 mb 0.00 in0.0 mm 0.00 in0.0 mm 0.00 in0.0 mm
10:48 AM 37.8°F3.2°C 36.1°F2.3°C 94% 1.0 mph NNW1.6 kmh NNW 3.0 mph4.8 kmh 30.27 in1025.1 mb 0.00 in0.0 mm 0.00 in0.0 mm 0.00 in0.0 mm
10:51 AM 37.9°F3.3°C 36.3°F2.4°C 94% Calm Calm 2.0 mph3.2 kmh 30.27 in1025.1 mb 0.00 in0.0 mm 0.00 in0.0 mm 0.00 in0.0 mm
10:54 AM 37.9°F3.3°C 36.5°F2.5°C 94% Calm Calm 1.0 mph1.6 kmh 30.27 in1025.1 mb 0.00 in0.0 mm 0.00 in0.0 mm 0.00 in0.0 mm
10:57 AM 38.1°F3.4°C 36.5°F2.5°C 94% Calm Calm 3.0 mph4.8 kmh 30.27 in1025.1 mb 0.00 in0.0 mm 0.00 in0.0 mm 0.00 in0.0 mm
11:00 AM 38.1°F3.4°C 36.7°F2.6°C 94% 1.0 mph NW1.6 kmh NW 3.0 mph4.8 kmh 30.27 in1025.1 mb 0.00 in0.0 mm 0.00 in0.0 mm 0.00 in0.0 mm
11:03 AM 38.3°F3.5°C 36.7°F2.6°C 94% 1.0 mph NW1.6 kmh NW 3.0 mph4.8 kmh 30.27 in1025.1 mb 0.00 in0.0 mm 0.00 in0.0 mm 0.00 in0.0 mm
11:06 AM 38.5°F3.6°C 36.9°F2.7°C 94% 1.0 mph NW1.6 kmh NW 3.0 mph4.8 kmh 30.27 in1025.1 mb 0.00 in0.0 mm 0.00 in0.0 mm 0.00 in0.0 mm
11:09 AM 38.5°F3.6°C 36.9°F2.7°C 94% 1.0 mph NW1.6 kmh NW 3.0 mph4.8 kmh 30.27 in1025.1 mb 0.00 in0.0 mm 0.00 in0.0 mm 0.00 in0.0 mm
11:12 AM 38.7°F3.7°C 37.0°F2.8°C 94% 1.0 mph NW1.6 kmh NW 3.0 mph4.8 kmh 30.27 in1025.1 mb 0.00 in0.0 mm 0.00 in0.0 mm 0.00 in0.0 mm
11:15 AM 38.7°F3.7°C 37.0°F2.8°C 94% 1.0 mph NW1.6 kmh NW 3.0 mph4.8 kmh 30.27 in1025.1 mb 0.00 in0.0 mm 0.00 in0.0 mm 0.00 in0.0 mm
11:18 AM 38.8°F3.8°C 37.2°F2.9°C 94% 1.0 mph NW1.6 kmh NW 4.0 mph6.4 kmh 30.27 in1025.1 mb 0.00 in0.0 mm 0.00 in0.0 mm 0.00 in0.0 mm
11:21 AM 39.0°F3.9°C 37.4°F3.0°C 94% 1.0 mph NW1.6 kmh NW 4.0 mph6.4 kmh 30.26 in1024.7 mb 0.00 in0.0 mm 0.00 in0.0 mm 0.00 in0.0 mm
11:24 AM 39.4°F4.1°C 37.8°F3.2°C 94% 1.0 mph WNW1.6 kmh WNW 6.0 mph9.7 kmh 30.26 in1024.7 mb 0.00 in0.0 mm 0.00 in0.0 mm 0.00 in0.0 mm
11:27 AM 39.6°F4.2°C 37.9°F3.3°C 94% 1.0 mph WNW1.6 kmh WNW 6.0 mph9.7 kmh 30.26 in1024.7 mb 0.00 in0.0 mm 0.00 in0.0 mm 0.00 in0.0 mm
11:30 AM 39.7°F4.3°C 38.1°F3.4°C 94% 2.0 mph WNW3.2 kmh WNW 6.0 mph9.7 kmh 30.26 in1024.7 mb 0.00 in0.0 mm 0.00 in0.0 mm 0.00 in0.0 mm
11:33 AM 39.9°F4.4°C 38.1°F3.4°C 93% 1.0 mph W1.6 kmh W 5.0 mph8.0 kmh 30.26 in1024.7 mb 0.00 in0.0 mm 0.00 in0.0 mm 0.00 in0.0 mm
11:36 AM 40.1°F4.5°C 38.3°F3.5°C 93% 1.0 mph W1.6 kmh W 4.0 mph6.4 kmh 30.26 in1024.7 mb 0.00 in0.0 mm 0.00 in0.0 mm 0.00 in0.0 mm
11:39 AM 40.3°F4.6°C 38.3°F3.5°C 93% 1.0 mph SW1.6 kmh SW 4.0 mph6.4 kmh 30.26 in1024.7 mb 0.00 in0.0 mm 0.00 in0.0 mm 0.00 in0.0 mm
11:42 AM 40.3°F4.6°C 38.1°F3.4°C 92% 1.0 mph S1.6 kmh S 4.0 mph6.4 kmh 30.26 in1024.7 mb 0.00 in0.0 mm 0.00 in0.0 mm 0.00 in0.0 mm
11:45 AM 40.3°F4.6°C 38.1°F3.4°C 92% 2.0 mph S3.2 kmh S 4.0 mph6.4 kmh 30.26 in1024.7 mb 0.00 in0.0 mm 0.00 in0.0 mm 0.00 in0.0 mm
11:48 AM 40.3°F4.6°C 38.1°F3.4°C 92% 2.0 mph SSE3.2 kmh SSE 4.0 mph6.4 kmh 30.26 in1024.7 mb 0.00 in0.0 mm 0.00 in0.0 mm 0.00 in0.0 mm
11:51 AM 40.5°F4.7°C 38.3°F3.5°C 92% 2.0 mph SSE3.2 kmh SSE 4.0 mph6.4 kmh 30.26 in1024.7 mb 0.00 in0.0 mm 0.00 in0.0 mm 0.00 in0.0 mm
11:54 AM 40.5°F4.7°C 38.3°F3.5°C 92% 2.0 mph SSE3.2 kmh SSE 4.0 mph6.4 kmh 30.26 in1024.7 mb 0.00 in0.0 mm 0.00 in0.0 mm 0.00 in0.0 mm
11:57 AM 40.6°F4.8°C 38.5°F3.6°C 92% 2.0 mph SSE3.2 kmh SSE 4.0 mph6.4 kmh 30.25 in1024.4 mb 0.00 in0.0 mm 0.00 in0.0 mm 0.00 in0.0 mm
12:00 PM 40.6°F4.8°C 38.5°F3.6°C 92% 2.0 mph SSE3.2 kmh SSE 4.0 mph6.4 kmh 30.25 in1024.4 mb 0.00 in0.0 mm 0.00 in0.0 mm 0.00 in0.0 mm
12:03 PM 40.8°F4.9°C 38.7°F3.7°C 92% 2.0 mph SSE3.2 kmh SSE 4.0 mph6.4 kmh 30.25 in1024.4 mb 0.00 in0.0 mm 0.00 in0.0 mm 0.00 in0.0 mm
12:06 PM 40.8°F4.9°C 38.8°F3.8°C 92% 2.0 mph SSE3.2 kmh SSE 4.0 mph6.4 kmh 30.25 in1024.4 mb 0.00 in0.0 mm 0.00 in0.0 mm 0.00 in0.0 mm
12:09 PM 41.2°F5.1°C 39.0°F3.9°C 92% 2.0 mph SSE3.2 kmh SSE 4.0 mph6.4 kmh 30.25 in1024.4 mb 0.00 in0.0 mm 0.00 in0.0 mm 0.00 in0.0 mm
12:12 PM 41.2°F5.1°C 39.0°F3.9°C 92% 1.0 mph SSE1.6 kmh SSE 2.0 mph3.2 kmh 30.25 in1024.4 mb 0.00 in0.0 mm 0.00 in0.0 mm 0.00 in0.0 mm
12:15 PM 41.4°F5.2°C 39.2°F4.0°C 92% 1.0 mph S1.6 kmh S 3.0 mph4.8 kmh 30.25 in1024.4 mb 0.00 in0.0 mm 0.00 in0.0 mm 0.00 in0.0 mm
12:18 PM 41.7°F5.4°C 39.6°F4.2°C 92% 1.0 mph SW1.6 kmh SW 3.0 mph4.8 kmh 30.25 in1024.4 mb 0.00 in0.0 mm 0.00 in0.0 mm 0.00 in0.0 mm
12:21 PM 41.9°F5.5°C 39.7°F4.3°C 92% 2.0 mph WSW3.2 kmh WSW 4.0 mph6.4 kmh 30.25 in1024.4 mb 0.00 in0.0 mm 0.00 in0.0 mm 0.00 in0.0 mm
12:24 PM 42.1°F5.6°C 39.7°F4.3°C 91% 2.0 mph WSW3.2 kmh WSW 4.0 mph6.4 kmh 30.25 in1024.4 mb 0.00 in0.0 mm 0.00 in0.0 mm 0.00 in0.0 mm
12:27 PM 42.3°F5.7°C 39.7°F4.3°C 91% 2.0 mph W3.2 kmh W 4.0 mph6.4 kmh 30.25 in1024.4 mb 0.00 in0.0 mm 0.00 in0.0 mm 0.00 in0.0 mm
12:30 PM 42.3°F5.7°C 39.9°F4.4°C 91% 2.0 mph WNW3.2 kmh WNW 4.0 mph6.4 kmh 30.25 in1024.4 mb 0.00 in0.0 mm 0.00 in0.0 mm 0.00 in0.0 mm
12:33 PM 42.4°F5.8°C 40.1°F4.5°C 91% 1.0 mph WNW1.6 kmh WNW 4.0 mph6.4 kmh 30.24 in1024.0 mb 0.00 in0.0 mm 0.00 in0.0 mm 0.00 in0.0 mm
12:36 PM 42.8°F6.0°C 40.3°F4.6°C 91% 1.0 mph W1.6 kmh W 4.0 mph6.4 kmh 30.24 in1024.0 mb 0.00 in0.0 mm 0.00 in0.0 mm 0.00 in0.0 mm
12:39 PM 42.8°F6.0°C 40.1°F4.5°C 90% 1.0 mph W1.6 kmh W 3.0 mph4.8 kmh 30.24 in1024.0 mb 0.00 in0.0 mm 0.00 in0.0 mm 0.00 in0.0 mm
12:42 PM 43.0°F6.1°C 40.3°F4.6°C 90% 1.0 mph W1.6 kmh W 3.0 mph4.8 kmh 30.24 in1024.0 mb 0.00 in0.0 mm 0.00 in0.0 mm 0.00 in0.0 mm
12:45 PM 43.0°F6.1°C 39.9°F4.4°C 89% 1.0 mph W1.6 kmh W 3.0 mph4.8 kmh 30.24 in1024.0 mb 0.00 in0.0 mm 0.00 in0.0 mm 0.00 in0.0 mm
12:48 PM 43.2°F6.2°C 40.1°F4.5°C 89% 1.0 mph W1.6 kmh W 2.0 mph3.2 kmh 30.24 in1024.0 mb 0.00 in0.0 mm 0.00 in0.0 mm 0.00 in0.0 mm
12:51 PM 43.2°F6.2°C 40.1°F4.5°C 89% 1.0 mph W1.6 kmh W 3.0 mph4.8 kmh 30.24 in1024.0 mb 0.00 in0.0 mm 0.00 in0.0 mm 0.00 in0.0 mm
12:54 PM 43.2°F6.2°C 40.1°F4.5°C 89% 1.0 mph W1.6 kmh W 3.0 mph4.8 kmh 30.24 in1024.0 mb 0.00 in0.0 mm 0.00 in0.0 mm 0.00 in0.0 mm
12:57 PM 43.2°F6.2°C 39.9°F4.4°C 88% 2.0 mph WSW3.2 kmh WSW 4.0 mph6.4 kmh 30.24 in1024.0 mb 0.00 in0.0 mm 0.00 in0.0 mm 0.00 in0.0 mm
01:00 PM 43.2°F6.2°C 39.9°F4.4°C 88% 2.0 mph SW3.2 kmh SW 4.0 mph6.4 kmh 30.24 in1024.0 mb 0.00 in0.0 mm 0.00 in0.0 mm 0.00 in0.0 mm
01:03 PM 43.2°F6.2°C 39.9°F4.4°C 88% 3.0 mph SSW4.8 kmh SSW 4.0 mph6.4 kmh 30.23 in1023.7 mb 0.00 in0.0 mm 0.00 in0.0 mm 0.00 in0.0 mm
01:06 PM 43.3°F6.3°C 39.9°F4.4°C 88% 3.0 mph S4.8 kmh S 4.0 mph6.4 kmh 30.23 in1023.7 mb 0.00 in0.0 mm 0.00 in0.0 mm 0.00 in0.0 mm
01:09 PM 43.3°F6.3°C 39.9°F4.4°C 88% 2.0 mph S3.2 kmh S 4.0 mph6.4 kmh 30.23 in1023.7 mb 0.00 in0.0 mm 0.00 in0.0 mm 0.00 in0.0 mm
01:12 PM 43.3°F6.3°C 39.9°F4.4°C 88% 2.0 mph S3.2 kmh S 5.0 mph8.0 kmh 30.23 in1023.7 mb 0.00 in0.0 mm 0.00 in0.0 mm 0.00 in0.0 mm
01:15 PM 43.3°F6.3°C 40.1°F4.5°C 88% 3.0 mph SSE4.8 kmh SSE 6.0 mph9.7 kmh 30.22 in1023.4 mb 0.00 in0.0 mm 0.00 in0.0 mm 0.00 in0.0 mm
01:18 PM 43.3°F6.3°C 40.1°F4.5°C 88% 4.0 mph SSE6.4 kmh SSE 9.0 mph14.5 kmh 30.22 in1023.4 mb 0.00 in0.0 mm 0.00 in0.0 mm 0.00 in0.0 mm
01:21 PM 43.3°F6.3°C 40.1°F4.5°C 88% 5.0 mph S8.0 kmh S 9.0 mph14.5 kmh 30.22 in1023.4 mb 0.00 in0.0 mm 0.00 in0.0 mm 0.00 in0.0 mm
01:24 PM 43.3°F6.3°C 39.7°F4.3°C 87% 5.0 mph S8.0 kmh S 9.0 mph14.5 kmh 30.22 in1023.4 mb 0.00 in0.0 mm 0.00 in0.0 mm 0.00 in0.0 mm
01:27 PM 43.3°F6.3°C 39.7°F4.3°C 87% 5.0 mph S8.0 kmh S 9.0 mph14.5 kmh 30.22 in1023.4 mb 0.00 in0.0 mm 0.00 in0.0 mm 0.00 in0.0 mm
01:30 PM 43.3°F6.3°C 39.7°F4.3°C 87% 5.0 mph S8.0 kmh S 9.0 mph14.5 kmh 30.22 in1023.4 mb 0.00 in0.0 mm 0.00 in0.0 mm 0.00 in0.0 mm
01:33 PM 43.3°F6.3°C 39.7°F4.3°C 87% 5.0 mph S8.0 kmh S 9.0 mph14.5 kmh 30.22 in1023.4 mb 0.00 in0.0 mm 0.00 in0.0 mm 0.00 in0.0 mm
01:36 PM 43.3°F6.3°C 39.7°F4.3°C 87% 4.0 mph S6.4 kmh S 9.0 mph14.5 kmh 30.22 in1023.4 mb 0.00 in0.0 mm 0.00 in0.0 mm 0.00 in0.0 mm
01:39 PM 43.3°F6.3°C 39.7°F4.3°C 87% 4.0 mph SSW6.4 kmh SSW 9.0 mph14.5 kmh 30.22 in1023.4 mb 0.00 in0.0 mm 0.00 in0.0 mm 0.00 in0.0 mm
01:42 PM 43.3°F6.3°C 39.7°F4.3°C 87% 3.0 mph SW4.8 kmh SW 6.0 mph9.7 kmh 30.22 in1023.4 mb 0.00 in0.0 mm 0.00 in0.0 mm 0.00 in0.0 mm
01:45 PM 43.2°F6.2°C 39.4°F4.1°C 86% 2.0 mph SW3.2 kmh SW 6.0 mph9.7 kmh 30.22 in1023.4 mb 0.00 in0.0 mm 0.00 in0.0 mm 0.00 in0.0 mm
01:48 PM 43.2°F6.2°C 39.6°F4.2°C 87% 3.0 mph SW4.8 kmh SW 6.0 mph9.7 kmh 30.21 in1023.0 mb 0.00 in0.0 mm 0.00 in0.0 mm 0.00 in0.0 mm
01:51 PM 43.2°F6.2°C 39.4°F4.1°C 86% 3.0 mph SSW4.8 kmh SSW 7.0 mph11.3 kmh 30.21 in1023.0 mb 0.00 in0.0 mm 0.00 in0.0 mm 0.00 in0.0 mm
01:54 PM 43.2°F6.2°C 39.4°F4.1°C 86% 4.0 mph S6.4 kmh S 8.0 mph12.9 kmh 30.21 in1023.0 mb 0.00 in0.0 mm 0.00 in0.0 mm 0.00 in0.0 mm
01:57 PM 43.2°F6.2°C 39.4°F4.1°C 86% 5.0 mph S8.0 kmh S 8.0 mph12.9 kmh 30.21 in1023.0 mb 0.00 in0.0 mm 0.00 in0.0 mm 0.00 in0.0 mm
02:00 PM 43.2°F6.2°C 39.4°F4.1°C 86% 5.0 mph S8.0 kmh S 9.0 mph14.5 kmh 30.21 in1023.0 mb 0.00 in0.0 mm 0.00 in0.0 mm 0.00 in0.0 mm
02:03 PM 43.2°F6.2°C 39.2°F4.0°C 86% 5.0 mph SSW8.0 kmh SSW 9.0 mph14.5 kmh 30.21 in1023.0 mb 0.00 in0.0 mm 0.00 in0.0 mm 0.00 in0.0 mm
02:06 PM 43.2°F6.2°C 39.4°F4.1°C 86% 5.0 mph S8.0 kmh S 9.0 mph14.5 kmh 30.21 in1023.0 mb 0.00 in0.0 mm 0.00 in0.0 mm 0.00 in0.0 mm
02:09 PM 43.2°F6.2°C 39.4°F4.1°C 86% 5.0 mph SSW8.0 kmh SSW 9.0 mph14.5 kmh 30.20 in1022.7 mb 0.00 in0.0 mm 0.00 in0.0 mm 0.00 in0.0 mm
02:12 PM 43.2°F6.2°C 39.4°F4.1°C 86% 5.0 mph SSW8.0 kmh SSW 9.0 mph14.5 kmh 30.20 in1022.7 mb 0.00 in0.0 mm 0.00 in0.0 mm 0.00 in0.0 mm
02:15 PM 43.3°F6.3°C 39.4°F4.1°C 86% 5.0 mph S8.0 kmh S 10.0 mph16.1 kmh 30.20 in1022.7 mb 0.00 in0.0 mm 0.00 in0.0 mm 0.00 in0.0 mm
02:18 PM 43.3°F6.3°C 39.6°F4.2°C 86% 5.0 mph S8.0 kmh S 10.0 mph16.1 kmh 30.20 in1022.7 mb 0.00 in0.0 mm 0.00 in0.0 mm 0.00 in0.0 mm
02:21 PM 43.3°F6.3°C 39.6°F4.2°C 86% 5.0 mph S8.0 kmh S 10.0 mph16.1 kmh 30.20 in1022.7 mb 0.00 in0.0 mm 0.00 in0.0 mm 0.00 in0.0 mm
02:24 PM 43.5°F6.4°C 39.2°F4.0°C 85% 5.0 mph S8.0 kmh S 10.0 mph16.1 kmh 30.20 in1022.7 mb 0.00 in0.0 mm 0.00 in0.0 mm 0.00 in0.0 mm
02:27 PM 43.5°F6.4°C 39.2°F4.0°C 85% 5.0 mph S8.0 kmh S 10.0 mph16.1 kmh 30.20 in1022.7 mb 0.00 in0.0 mm 0.00 in0.0 mm 0.00 in0.0 mm
02:30 PM 43.3°F6.3°C 38.8°F3.8°C 84% 5.0 mph SSW8.0 kmh SSW 11.0 mph17.7 kmh 30.20 in1022.7 mb 0.00 in0.0 mm 0.00 in0.0 mm 0.00 in0.0 mm
02:33 PM 43.3°F6.3°C 38.8°F3.8°C 84% 5.0 mph SSW8.0 kmh SSW 11.0 mph17.7 kmh 30.19 in1022.4 mb 0.00 in0.0 mm 0.00 in0.0 mm 0.00 in0.0 mm
02:36 PM 43.3°F6.3°C 38.8°F3.8°C 84% 5.0 mph SSW8.0 kmh SSW 11.0 mph17.7 kmh 30.19 in1022.4 mb 0.00 in0.0 mm 0.00 in0.0 mm 0.00 in0.0 mm
02:39 PM 43.3°F6.3°C 38.8°F3.8°C 84% 5.0 mph SSW8.0 kmh SSW 10.0 mph16.1 kmh 30.19 in1022.4 mb 0.00 in0.0 mm 0.00 in0.0 mm 0.00 in0.0 mm
02:42 PM 43.3°F6.3°C 38.8°F3.8°C 84% 5.0 mph SSW8.0 kmh SSW 11.0 mph17.7 kmh 30.19 in1022.4 mb 0.00 in0.0 mm 0.00 in0.0 mm 0.00 in0.0 mm
02:45 PM 43.3°F6.3°C 38.8°F3.8°C 84% 5.0 mph SSW8.0 kmh SSW 11.0 mph17.7 kmh 30.19 in1022.4 mb 0.00 in0.0 mm 0.00 in0.0 mm 0.00 in0.0 mm
02:48 PM 43.3°F6.3°C 38.8°F3.8°C 84% 5.0 mph SSW8.0 kmh SSW 11.0 mph17.7 kmh 30.19 in1022.4 mb 0.00 in0.0 mm 0.00 in0.0 mm 0.00 in0.0 mm
02:51 PM 43.3°F6.3°C 38.8°F3.8°C 84% 5.0 mph SSW8.0 kmh SSW 10.0 mph16.1 kmh 30.18 in1022.0 mb 0.00 in0.0 mm 0.00 in0.0 mm 0.00 in0.0 mm
02:54 PM 43.3°F6.3°C 39.0°F3.9°C 85% 4.0 mph SSW6.4 kmh SSW 10.0 mph16.1 kmh 30.18 in1022.0 mb 0.00 in0.0 mm 0.00 in0.0 mm 0.00 in0.0 mm
02:57 PM 43.3°F6.3°C 39.2°F4.0°C 85% 4.0 mph SW6.4 kmh SW 10.0 mph16.1 kmh 30.18 in1022.0 mb 0.00 in0.0 mm 0.00 in0.0 mm 0.00 in0.0 mm
03:00 PM 43.3°F6.3°C 39.2°F4.0°C 85% 4.0 mph SW6.4 kmh SW 9.0 mph14.5 kmh 30.18 in1022.0 mb 0.00 in0.0 mm 0.00 in0.0 mm 0.00 in0.0 mm
03:03 PM 43.5°F6.4°C 39.2°F4.0°C 85% 4.0 mph SW6.4 kmh SW 10.0 mph16.1 kmh 30.18 in1022.0 mb 0.00 in0.0 mm 0.00 in0.0 mm 0.00 in0.0 mm
03:06 PM 43.5°F6.4°C 39.2°F4.0°C 85% 5.0 mph SW8.0 kmh SW 10.0 mph16.1 kmh 30.18 in1022.0 mb 0.00 in0.0 mm 0.00 in0.0 mm 0.00 in0.0 mm
03:09 PM 43.5°F6.4°C 39.4°F4.1°C 85% 4.0 mph SW6.4 kmh SW 10.0 mph16.1 kmh 30.17 in1021.7 mb 0.00 in0.0 mm 0.00 in0.0 mm 0.00 in0.0 mm
03:12 PM 43.5°F6.4°C 39.4°F4.1°C 85% 4.0 mph SW6.4 kmh SW 9.0 mph14.5 kmh 30.17 in1021.7 mb 0.00 in0.0 mm 0.00 in0.0 mm 0.00 in0.0 mm
03:15 PM 43.7°F6.5°C 39.6°F4.2°C 85% 4.0 mph SW6.4 kmh SW 9.0 mph14.5 kmh 30.17 in1021.7 mb 0.00 in0.0 mm 0.00 in0.0 mm 0.00 in0.0 mm
03:18 PM 43.7°F6.5°C 39.6°F4.2°C 85% 4.0 mph SW6.4 kmh SW 11.0 mph17.7 kmh 30.17 in1021.7 mb 0.00 in0.0 mm 0.00 in0.0 mm 0.00 in0.0 mm
03:21 PM 43.9°F6.6°C 39.6°F4.2°C 85% 5.0 mph SSW8.0 kmh SSW 11.0 mph17.7 kmh 30.17 in1021.7 mb 0.00 in0.0 mm 0.00 in0.0 mm 0.00 in0.0 mm
03:24 PM 43.9°F6.6°C 39.7°F4.3°C 85% 5.0 mph SSW8.0 kmh SSW 11.0 mph17.7 kmh 30.16 in1021.3 mb 0.00 in0.0 mm 0.00 in0.0 mm 0.00 in0.0 mm
03:27 PM 44.1°F6.7°C 39.7°F4.3°C 85% 5.0 mph SSW8.0 kmh SSW 11.0 mph17.7 kmh 30.16 in1021.3 mb 0.00 in0.0 mm 0.00 in0.0 mm 0.00 in0.0 mm
03:30 PM 44.1°F6.7°C 39.7°F4.3°C 85% 5.0 mph SSW8.0 kmh SSW 11.0 mph17.7 kmh 30.16 in1021.3 mb 0.00 in0.0 mm 0.00 in0.0 mm 0.00 in0.0 mm
03:33 PM 44.1°F6.7°C 40.1°F4.5°C 86% 4.0 mph SSW6.4 kmh SSW 8.0 mph12.9 kmh 30.16 in1021.3 mb 0.00 in0.0 mm 0.00 in0.0 mm 0.00 in0.0 mm
03:36 PM 44.1°F6.7°C 40.1°F4.5°C 86% 4.0 mph SSW6.4 kmh SSW 7.0 mph11.3 kmh 30.16 in1021.3 mb 0.00 in0.0 mm 0.00 in0.0 mm 0.00 in0.0 mm
03:39 PM 44.1°F6.7°C 40.1°F4.5°C 86% 4.0 mph SW6.4 kmh SW 7.0 mph11.3 kmh 30.16 in1021.3 mb 0.00 in0.0 mm 0.00 in0.0 mm 0.00 in0.0 mm
03:42 PM 44.1°F6.7°C 40.1°F4.5°C 86% 4.0 mph SSW6.4 kmh SSW 7.0 mph11.3 kmh 30.16 in1021.3 mb 0.00 in0.0 mm 0.00 in0.0 mm 0.00 in0.0 mm
03:45 PM 44.1°F6.7°C 40.1°F4.5°C 86% 4.0 mph SSW6.4 kmh SSW 7.0 mph11.3 kmh 30.16 in1021.3 mb 0.00 in0.0 mm 0.00 in0.0 mm 0.00 in0.0 mm
03:48 PM 44.1°F6.7°C 40.1°F4.5°C 86% 4.0 mph SW6.4 kmh SW 8.0 mph12.9 kmh 30.16 in1021.3 mb 0.00 in0.0 mm 0.00 in0.0 mm 0.00 in0.0 mm
03:51 PM 44.1°F6.7°C 40.1°F4.5°C 86% 4.0 mph SSW6.4 kmh SSW 8.0 mph12.9 kmh 30.16 in1021.3 mb 0.00 in0.0 mm 0.00 in0.0 mm 0.00 in0.0 mm
03:54 PM 44.1°F6.7°C 40.1°F4.5°C 86% 4.0 mph SW6.4 kmh SW 9.0 mph14.5 kmh 30.16 in1021.3 mb 0.00 in0.0 mm 0.00 in0.0 mm 0.00 in0.0 mm
03:57 PM 44.1°F6.7°C 40.1°F4.5°C 86% 5.0 mph SW8.0 kmh SW 9.0 mph14.5 kmh 30.16 in1021.3 mb 0.00 in0.0 mm 0.00 in0.0 mm 0.00 in0.0 mm
04:00 PM 44.1°F6.7°C 40.1°F4.5°C 86% 5.0 mph SW8.0 kmh SW 9.0 mph14.5 kmh 30.16 in1021.3 mb 0.00 in0.0 mm 0.00 in0.0 mm 0.00 in0.0 mm
04:03 PM 44.1°F6.7°C 40.1°F4.5°C 86% 5.0 mph SW8.0 kmh SW 9.0 mph14.5 kmh 30.15 in1021.0 mb 0.00 in0.0 mm 0.00 in0.0 mm 0.00 in0.0 mm
04:06 PM 44.1°F6.7°C 40.1°F4.5°C 86% 5.0 mph SW8.0 kmh SW 9.0 mph14.5 kmh 30.15 in1021.0 mb 0.00 in0.0 mm 0.00 in0.0 mm 0.00 in0.0 mm
04:09 PM 43.9°F6.6°C 39.9°F4.4°C 86% 5.0 mph SW8.0 kmh SW 10.0 mph16.1 kmh 30.15 in1021.0 mb 0.00 in0.0 mm 0.00 in0.0 mm 0.00 in0.0 mm
04:12 PM 43.9°F6.6°C 40.1°F4.5°C 87% 5.0 mph SW8.0 kmh SW 10.0 mph16.1 kmh 30.15 in1021.0 mb 0.00 in0.0 mm 0.00 in0.0 mm 0.00 in0.0 mm
04:15 PM 43.7°F6.5°C 40.1°F4.5°C 87% 5.0 mph SW8.0 kmh SW 10.0 mph16.1 kmh 30.15 in1021.0 mb 0.00 in0.0 mm 0.00 in0.0 mm 0.00 in0.0 mm
04:18 PM 43.7°F6.5°C 40.1°F4.5°C 87% 5.0 mph SW8.0 kmh SW 10.0 mph16.1 kmh 30.15 in1021.0 mb 0.00 in0.0 mm 0.00 in0.0 mm 0.00 in0.0 mm
04:21 PM 43.7°F6.5°C 40.1°F4.5°C 87% 5.0 mph SW8.0 kmh SW 10.0 mph16.1 kmh 30.15 in1021.0 mb 0.01 in0.3 mm 0.20 in5.1 mm 0.01 in0.3 mm
04:24 PM 43.7°F6.5°C 40.1°F4.5°C 87% 4.0 mph SW6.4 kmh SW 10.0 mph16.1 kmh 30.15 in1021.0 mb 0.01 in0.3 mm 0.00 in0.0 mm 0.01 in0.3 mm
04:27 PM 43.7°F6.5°C 40.5°F4.7°C 88% 4.0 mph SW6.4 kmh SW 8.0 mph12.9 kmh 30.15 in1021.0 mb 0.01 in0.3 mm 0.00 in0.0 mm 0.01 in0.3 mm
04:30 PM 43.5°F6.4°C 40.3°F4.6°C 88% 4.0 mph SSW6.4 kmh SSW 8.0 mph12.9 kmh 30.15 in1021.0 mb 0.01 in0.3 mm 0.00 in0.0 mm 0.01 in0.3 mm
04:33 PM 43.7°F6.5°C 40.5°F4.7°C 88% 4.0 mph SSW6.4 kmh SSW 9.0 mph14.5 kmh 30.15 in1021.0 mb 0.01 in0.3 mm 0.00 in0.0 mm 0.01 in0.3 mm
04:36 PM 43.5°F6.4°C 40.3°F4.6°C 88% 4.0 mph SSW6.4 kmh SSW 9.0 mph14.5 kmh 30.15 in1021.0 mb 0.01 in0.3 mm 0.00 in0.0 mm 0.01 in0.3 mm
04:39 PM 43.5°F6.4°C 40.3°F4.6°C 88% 4.0 mph SSW6.4 kmh SSW 9.0 mph14.5 kmh 30.15 in1021.0 mb 0.01 in0.3 mm 0.00 in0.0 mm 0.01 in0.3 mm
04:42 PM 43.5°F6.4°C 40.3°F4.6°C 88% 5.0 mph SSW8.0 kmh SSW 11.0 mph17.7 kmh 30.15 in1021.0 mb 0.01 in0.3 mm 0.00 in0.0 mm 0.01 in0.3 mm
04:45 PM 43.5°F6.4°C 40.6°F4.8°C 89% 5.0 mph SW8.0 kmh SW 11.0 mph17.7 kmh 30.15 in1021.0 mb 0.01 in0.3 mm 0.00 in0.0 mm 0.01 in0.3 mm
04:48 PM 43.5°F6.4°C 40.6°F4.8°C 89% 5.0 mph SW8.0 kmh SW 11.0 mph17.7 kmh 30.15 in1021.0 mb 0.01 in0.3 mm 0.00 in0.0 mm 0.01 in0.3 mm
04:51 PM 43.5°F6.4°C 40.6°F4.8°C 89% 4.0 mph SW6.4 kmh SW 11.0 mph17.7 kmh 30.15 in1021.0 mb 0.01 in0.3 mm 0.00 in0.0 mm 0.01 in0.3 mm
04:54 PM 43.5°F6.4°C 40.6°F4.8°C 89% 4.0 mph SW6.4 kmh SW 11.0 mph17.7 kmh 30.15 in1021.0 mb 0.01 in0.3 mm 0.00 in0.0 mm 0.01 in0.3 mm
04:57 PM 43.5°F6.4°C 40.6°F4.8°C 89% 5.0 mph SW8.0 kmh SW 11.0 mph17.7 kmh 30.14 in1020.7 mb 0.01 in0.3 mm 0.00 in0.0 mm 0.01 in0.3 mm
05:00 PM 43.5°F6.4°C 40.8°F4.9°C 90% 5.0 mph SSW8.0 kmh SSW 11.0 mph17.7 kmh 30.15 in1021.0 mb 0.01 in0.3 mm 0.00 in0.0 mm 0.01 in0.3 mm
05:03 PM 43.5°F6.4°C 40.8°F4.9°C 90% 4.0 mph SSW6.4 kmh SSW 9.0 mph14.5 kmh 30.15 in1021.0 mb 0.01 in0.3 mm 0.00 in0.0 mm 0.01 in0.3 mm
05:06 PM 43.5°F6.4°C 40.8°F4.9°C 90% 4.0 mph SW6.4 kmh SW 9.0 mph14.5 kmh 30.15 in1021.0 mb 0.01 in0.3 mm 0.00 in0.0 mm 0.01 in0.3 mm
05:09 PM 43.5°F6.4°C 40.8°F4.9°C 90% 4.0 mph SW6.4 kmh SW 9.0 mph14.5 kmh 30.15 in1021.0 mb 0.01 in0.3 mm 0.00 in0.0 mm 0.01 in0.3 mm
05:12 PM 43.5°F6.4°C 40.8°F4.9°C 90% 4.0 mph SW6.4 kmh SW 9.0 mph14.5 kmh 30.15 in1021.0 mb 0.01 in0.3 mm 0.00 in0.0 mm 0.01 in0.3 mm
05:15 PM 43.5°F6.4°C 41.0°F5.0°C 91% 3.0 mph SW4.8 kmh SW 7.0 mph11.3 kmh 30.14 in1020.7 mb 0.01 in0.3 mm 0.00 in0.0 mm 0.01 in0.3 mm
05:18 PM 43.3°F6.3°C 41.0°F5.0°C 91% 4.0 mph SW6.4 kmh SW 8.0 mph12.9 kmh 30.14 in1020.7 mb 0.01 in0.3 mm 0.00 in0.0 mm 0.01 in0.3 mm
05:21 PM 43.3°F6.3°C 41.0°F5.0°C 91% 4.0 mph SW6.4 kmh SW 10.0 mph16.1 kmh 30.14 in1020.7 mb 0.00 in0.0 mm 0.00 in0.0 mm 0.01 in0.3 mm
05:24 PM 43.3°F6.3°C 41.0°F5.0°C 91% 5.0 mph SW8.0 kmh SW 10.0 mph16.1 kmh 30.14 in1020.7 mb 0.00 in0.0 mm 0.00 in0.0 mm 0.01 in0.3 mm
05:27 PM 43.3°F6.3°C 40.8°F4.9°C 91% 5.0 mph SW8.0 kmh SW 11.0 mph17.7 kmh 30.14 in1020.7 mb 0.00 in0.0 mm 0.00 in0.0 mm 0.01 in0.3 mm
05:30 PM 43.3°F6.3°C 40.8°F4.9°C 91% 5.0 mph SW8.0 kmh SW 11.0 mph17.7 kmh 30.14 in1020.7 mb 0.00 in0.0 mm 0.00 in0.0 mm 0.01 in0.3 mm
05:33 PM 43.2°F6.2°C 40.8°F4.9°C 91% 4.0 mph SW6.4 kmh SW 11.0 mph17.7 kmh 30.14 in1020.7 mb 0.00 in0.0 mm 0.00 in0.0 mm 0.01 in0.3 mm
05:36 PM 43.2°F6.2°C 40.8°F4.9°C 91% 4.0 mph SW6.4 kmh SW 9.0 mph14.5 kmh 30.14 in1020.7 mb 0.00 in0.0 mm 0.00 in0.0 mm 0.01 in0.3 mm
05:39 PM 43.2°F6.2°C 41.0°F5.0°C 92% 4.0 mph SW6.4 kmh SW 8.0 mph12.9 kmh 30.14 in1020.7 mb 0.00 in0.0 mm 0.00 in0.0 mm 0.01 in0.3 mm
05:42 PM 43.2°F6.2°C 41.0°F5.0°C 92% 4.0 mph SW6.4 kmh SW 8.0 mph12.9 kmh 30.14 in1020.7 mb 0.00 in0.0 mm 0.00 in0.0 mm 0.01 in0.3 mm
05:45 PM 43.2°F6.2°C 41.0°F5.0°C 92% 4.0 mph SW6.4 kmh SW 8.0 mph12.9 kmh 30.14 in1020.7 mb 0.00 in0.0 mm 0.00 in0.0 mm 0.01 in0.3 mm
05:48 PM 43.2°F6.2°C 41.0°F5.0°C 92% 4.0 mph SW6.4 kmh SW 7.0 mph11.3 kmh 30.14 in1020.7 mb 0.00 in0.0 mm 0.00 in0.0 mm 0.01 in0.3 mm
05:51 PM 43.2°F6.2°C 41.0°F5.0°C 92% 4.0 mph SSW6.4 kmh SSW 7.0 mph11.3 kmh 30.14 in1020.7 mb 0.00 in0.0 mm 0.00 in0.0 mm 0.01 in0.3 mm
05:54 PM 43.0°F6.1°C 40.8°F4.9°C 92% 4.0 mph SSW6.4 kmh SSW 8.0 mph12.9 kmh 30.14 in1020.7 mb 0.00 in0.0 mm 0.00 in0.0 mm 0.01 in0.3 mm
05:57 PM 43.0°F6.1°C 40.8°F4.9°C 92% 4.0 mph SSW6.4 kmh SSW 9.0 mph14.5 kmh 30.14 in1020.7 mb 0.00 in0.0 mm 0.00 in0.0 mm 0.01 in0.3 mm
06:00 PM 43.0°F6.1°C 40.8°F4.9°C 92% 4.0 mph SSW6.4 kmh SSW 9.0 mph14.5 kmh 30.14 in1020.7 mb 0.00 in0.0 mm 0.00 in0.0 mm 0.01 in0.3 mm
06:03 PM 43.2°F6.2°C 41.0°F5.0°C 92% 4.0 mph SSW6.4 kmh SSW 9.0 mph14.5 kmh 30.14 in1020.7 mb 0.00 in0.0 mm 0.00 in0.0 mm 0.01 in0.3 mm
06:06 PM 43.0°F6.1°C 40.8°F4.9°C 92% 4.0 mph SSW6.4 kmh SSW 9.0 mph14.5 kmh 30.14 in1020.7 mb 0.00 in0.0 mm 0.00 in0.0 mm 0.01 in0.3 mm
06:09 PM 43.0°F6.1°C 40.8°F4.9°C 92% 4.0 mph SSW6.4 kmh SSW 9.0 mph14.5 kmh 30.14 in1020.7 mb 0.00 in0.0 mm 0.00 in0.0 mm 0.01 in0.3 mm
06:12 PM 43.2°F6.2°C 41.0°F5.0°C 92% 4.0 mph SSW6.4 kmh SSW 9.0 mph14.5 kmh 30.14 in1020.7 mb 0.00 in0.0 mm 0.00 in0.0 mm 0.01 in0.3 mm
06:15 PM 43.2°F6.2°C 41.2°F5.1°C 93% 4.0 mph SSW6.4 kmh SSW 7.0 mph11.3 kmh 30.14 in1020.7 mb 0.00 in0.0 mm 0.00 in0.0 mm 0.01 in0.3 mm
06:18 PM 43.2°F6.2°C 41.2°F5.1°C 93% 4.0 mph SSW6.4 kmh SSW 7.0 mph11.3 kmh 30.13 in1020.3 mb 0.00 in0.0 mm 0.00 in0.0 mm 0.01 in0.3 mm
06:21 PM 43.2°F6.2°C 41.2°F5.1°C 93% 4.0 mph SSW6.4 kmh SSW 7.0 mph11.3 kmh 30.13 in1020.3 mb 0.00 in0.0 mm 0.00 in0.0 mm 0.01 in0.3 mm
06:24 PM 43.2°F6.2°C 41.2°F5.1°C 93% 4.0 mph SSW6.4 kmh SSW 9.0 mph14.5 kmh 30.13 in1020.3 mb 0.00 in0.0 mm 0.00 in0.0 mm 0.01 in0.3 mm
06:27 PM 43.2°F6.2°C 41.4°F5.2°C 93% 5.0 mph SSW8.0 kmh SSW 9.0 mph14.5 kmh 30.13 in1020.3 mb 0.00 in0.0 mm 0.00 in0.0 mm 0.01 in0.3 mm
06:30 PM 43.2°F6.2°C 41.4°F5.2°C 93% 5.0 mph S8.0 kmh S 9.0 mph14.5 kmh 30.13 in1020.3 mb 0.00 in0.0 mm 0.00 in0.0 mm 0.01 in0.3 mm
06:33 PM 43.2°F6.2°C 41.4°F5.2°C 93% 5.0 mph SSW8.0 kmh SSW 9.0 mph14.5 kmh 30.13 in1020.3 mb 0.00 in0.0 mm 0.00 in0.0 mm 0.01 in0.3 mm
06:36 PM 43.2°F6.2°C 41.4°F5.2°C 93% 5.0 mph SSW8.0 kmh SSW 8.0 mph12.9 kmh 30.13 in1020.3 mb 0.00 in0.0 mm 0.00 in0.0 mm 0.01 in0.3 mm
06:39 PM 43.2°F6.2°C 41.4°F5.2°C 93% 5.0 mph SSW8.0 kmh SSW 8.0 mph12.9 kmh 30.13 in1020.3 mb 0.00 in0.0 mm 0.00 in0.0 mm 0.01 in0.3 mm
06:42 PM 43.3°F6.3°C 41.4°F5.2°C 93% 5.0 mph SW8.0 kmh SW 10.0 mph16.1 kmh 30.12 in1020.0 mb 0.00 in0.0 mm 0.00 in0.0 mm 0.01 in0.3 mm
06:45 PM 43.3°F6.3°C 41.4°F5.2°C 93% 5.0 mph SW8.0 kmh SW 10.0 mph16.1 kmh 30.12 in1020.0 mb 0.00 in0.0 mm 0.00 in0.0 mm 0.01 in0.3 mm
06:48 PM 43.3°F6.3°C 41.4°F5.2°C 93% 5.0 mph SW8.0 kmh SW 11.0 mph17.7 kmh 30.12 in1020.0 mb 0.00 in0.0 mm 0.00 in0.0 mm 0.01 in0.3 mm
06:51 PM 43.3°F6.3°C 41.5°F5.3°C 93% 6.0 mph SW9.7 kmh SW 15.0 mph24.1 kmh 30.12 in1020.0 mb 0.00 in0.0 mm 0.00 in0.0 mm 0.01 in0.3 mm
06:54 PM 43.3°F6.3°C 41.5°F5.3°C 93% 6.0 mph SW9.7 kmh SW 15.0 mph24.1 kmh 30.12 in1020.0 mb 0.00 in0.0 mm 0.00 in0.0 mm 0.01 in0.3 mm
06:57 PM 43.3°F6.3°C 41.5°F5.3°C 93% 6.0 mph SW9.7 kmh SW 15.0 mph24.1 kmh 30.12 in1020.0 mb 0.00 in0.0 mm 0.00 in0.0 mm 0.01 in0.3 mm
07:00 PM 43.3°F6.3°C 41.5°F5.3°C 93% 6.0 mph SW9.7 kmh SW 15.0 mph24.1 kmh 30.12 in1020.0 mb 0.00 in0.0 mm 0.00 in0.0 mm 0.01 in0.3 mm
07:03 PM 43.3°F6.3°C 41.4°F5.2°C 93% 6.0 mph SW9.7 kmh SW 12.0 mph19.3 kmh 30.12 in1020.0 mb 0.00 in0.0 mm 0.00 in0.0 mm 0.01 in0.3 mm
07:06 PM 43.3°F6.3°C 41.4°F5.2°C 93% 6.0 mph SW9.7 kmh SW 13.0 mph20.9 kmh 30.12 in1020.0 mb 0.00 in0.0 mm 0.00 in0.0 mm 0.01 in0.3 mm
07:09 PM 43.3°F6.3°C 41.4°F5.2°C 93% 6.0 mph SW9.7 kmh SW 13.0 mph20.9 kmh 30.12 in1020.0 mb 0.00 in0.0 mm 0.00 in0.0 mm 0.01 in0.3 mm
07:12 PM 43.3°F6.3°C 41.4°F5.2°C 93% 6.0 mph SW9.7 kmh SW 13.0 mph20.9 kmh 30.12 in1020.0 mb 0.00 in0.0 mm 0.00 in0.0 mm 0.01 in0.3 mm
07:15 PM 43.3°F6.3°C 41.4°F5.2°C 93% 6.0 mph SW9.7 kmh SW 14.0 mph22.5 kmh 30.11 in1019.6 mb 0.00 in0.0 mm 0.00 in0.0 mm 0.01 in0.3 mm
07:18 PM 43.3°F6.3°C 41.4°F5.2°C 93% 6.0 mph SW9.7 kmh SW 14.0 mph22.5 kmh 30.11 in1019.6 mb 0.00 in0.0 mm 0.00 in0.0 mm 0.01 in0.3 mm
07:21 PM 43.3°F6.3°C 41.4°F5.2°C 93% 6.0 mph SW9.7 kmh SW 14.0 mph22.5 kmh 30.11 in1019.6 mb 0.00 in0.0 mm 0.00 in0.0 mm 0.01 in0.3 mm
07:24 PM 43.2°F6.2°C 41.4°F5.2°C 93% 5.0 mph SW8.0 kmh SW 10.0 mph16.1 kmh 30.11 in1019.6 mb 0.00 in0.0 mm 0.00 in0.0 mm 0.01 in0.3 mm
07:27 PM 43.2°F6.2°C 41.4°F5.2°C 93% 6.0 mph SW9.7 kmh SW 10.0 mph16.1 kmh 30.11 in1019.6 mb 0.00 in0.0 mm 0.00 in0.0 mm 0.01 in0.3 mm
07:30 PM 43.2°F6.2°C 41.4°F5.2°C 93% 5.0 mph SW8.0 kmh SW 10.0 mph16.1 kmh 30.11 in1019.6 mb 0.00 in0.0 mm 0.00 in0.0 mm 0.01 in0.3 mm
07:33 PM 43.2°F6.2°C 41.4°F5.2°C 93% 5.0 mph SW8.0 kmh SW 10.0 mph16.1 kmh 30.11 in1019.6 mb 0.00 in0.0 mm 0.00 in0.0 mm 0.01 in0.3 mm
07:36 PM 43.2°F6.2°C 41.2°F5.1°C 93% 4.0 mph SW6.4 kmh SW 9.0 mph14.5 kmh 30.11 in1019.6 mb 0.00 in0.0 mm 0.00 in0.0 mm 0.01 in0.3 mm
07:39 PM 43.2°F6.2°C 41.2°F5.1°C 93% 4.0 mph SW6.4 kmh SW 9.0 mph14.5 kmh 30.11 in1019.6 mb 0.00 in0.0 mm 0.00 in0.0 mm 0.01 in0.3 mm
07:42 PM 43.2°F6.2°C 41.2°F5.1°C 93% 3.0 mph SW4.8 kmh SW 7.0 mph11.3 kmh 30.11 in1019.6 mb 0.00 in0.0 mm 0.00 in0.0 mm 0.01 in0.3 mm
07:45 PM 43.2°F6.2°C 41.2°F5.1°C 93% 3.0 mph SW4.8 kmh SW 7.0 mph11.3 kmh 30.11 in1019.6 mb 0.00 in0.0 mm 0.00 in0.0 mm 0.01 in0.3 mm
07:48 PM 43.2°F6.2°C 41.2°F5.1°C 93% 4.0 mph SSW6.4 kmh SSW 10.0 mph16.1 kmh 30.11 in1019.6 mb 0.00 in0.0 mm 0.00 in0.0 mm 0.01 in0.3 mm
07:51 PM 43.2°F6.2°C 41.2°F5.1°C 93% 4.0 mph SSW6.4 kmh SSW 10.0 mph16.1 kmh 30.11 in1019.6 mb 0.00 in0.0 mm 0.00 in0.0 mm 0.01 in0.3 mm
07:54 PM 43.2°F6.2°C 41.2°F5.1°C 93% 5.0 mph SSW8.0 kmh SSW 10.0 mph16.1 kmh 30.10 in1019.3 mb 0.00 in0.0 mm 0.00 in0.0 mm 0.01 in0.3 mm
07:57 PM 43.2°F6.2°C 41.2°F5.1°C 93% 5.0 mph SSW8.0 kmh SSW 9.0 mph14.5 kmh 30.11 in1019.6 mb 0.00 in0.0 mm 0.00 in0.0 mm 0.01 in0.3 mm
08:00 PM 43.2°F6.2°C 41.2°F5.1°C 93% 5.0 mph SW8.0 kmh SW 9.0 mph14.5 kmh 30.10 in1019.3 mb 0.00 in0.0 mm 0.00 in0.0 mm 0.01 in0.3 mm
08:03 PM 43.2°F6.2°C 41.2°F5.1°C 93% 5.0 mph SW8.0 kmh SW 9.0 mph14.5 kmh 30.10 in1019.3 mb 0.00 in0.0 mm 0.00 in0.0 mm 0.01 in0.3 mm
08:06 PM 43.2°F6.2°C 41.2°F5.1°C 93% 5.0 mph SW8.0 kmh SW 9.0 mph14.5 kmh 30.10 in1019.3 mb 0.00 in0.0 mm 0.00 in0.0 mm 0.01 in0.3 mm
08:09 PM 43.2°F6.2°C 41.2°F5.1°C 93% 5.0 mph SW8.0 kmh SW 9.0 mph14.5 kmh 30.10 in1019.3 mb 0.00 in0.0 mm 0.00 in0.0 mm 0.01 in0.3 mm
08:12 PM 43.2°F6.2°C 41.2°F5.1°C 93% 5.0 mph SW8.0 kmh SW 9.0 mph14.5 kmh 30.10 in1019.3 mb 0.00 in0.0 mm 0.00 in0.0 mm 0.01 in0.3 mm
08:15 PM 43.2°F6.2°C 41.2°F5.1°C 93% 5.0 mph SW8.0 kmh SW 11.0 mph17.7 kmh 30.10 in1019.3 mb 0.00 in0.0 mm 0.00 in0.0 mm 0.01 in0.3 mm
08:18 PM 43.2°F6.2°C 41.4°F5.2°C 93% 5.0 mph SW8.0 kmh SW 11.0 mph17.7 kmh 30.10 in1019.3 mb 0.00 in0.0 mm 0.00 in0.0 mm 0.01 in0.3 mm
08:21 PM 43.2°F6.2°C 41.4°F5.2°C 93% 5.0 mph SW8.0 kmh SW 13.0 mph20.9 kmh 30.10 in1019.3 mb 0.00 in0.0 mm 0.00 in0.0 mm 0.01 in0.3 mm
08:24 PM 43.2°F6.2°C 41.4°F5.2°C 93% 5.0 mph SW8.0 kmh SW 13.0 mph20.9 kmh 30.10 in1019.3 mb 0.00 in0.0 mm 0.00 in0.0 mm 0.01 in0.3 mm
08:27 PM 43.2°F6.2°C 41.4°F5.2°C 93% 5.0 mph SW8.0 kmh SW 13.0 mph20.9 kmh 30.09 in1019.0 mb 0.00 in0.0 mm 0.00 in0.0 mm 0.01 in0.3 mm
08:30 PM 43.2°F6.2°C 41.4°F5.2°C 93% 4.0 mph SW6.4 kmh SW 10.0 mph16.1 kmh 30.09 in1019.0 mb 0.00 in0.0 mm 0.00 in0.0 mm 0.01 in0.3 mm
08:33 PM 43.2°F6.2°C 41.4°F5.2°C 93% 4.0 mph SW6.4 kmh SW 10.0 mph16.1 kmh 30.09 in1019.0 mb 0.00 in0.0 mm 0.00 in0.0 mm 0.01 in0.3 mm
08:36 PM 43.3°F6.3°C 41.4°F5.2°C 93% 4.0 mph SSW6.4 kmh SSW 8.0 mph12.9 kmh 30.09 in1019.0 mb 0.00 in0.0 mm 0.00 in0.0 mm 0.01 in0.3 mm
08:39 PM 43.3°F6.3°C 41.4°F5.2°C 93% 4.0 mph SSW6.4 kmh SSW 8.0 mph12.9 kmh 30.09 in1019.0 mb 0.00 in0.0 mm 0.00 in0.0 mm 0.01 in0.3 mm
08:42 PM 43.3°F6.3°C 41.4°F5.2°C 93% 5.0 mph SSW8.0 kmh SSW 9.0 mph14.5 kmh 30.09 in1019.0 mb 0.00 in0.0 mm 0.00 in0.0 mm 0.01 in0.3 mm
08:45 PM 43.3°F6.3°C 41.4°F5.2°C 93% 5.0 mph SSW8.0 kmh SSW 9.0 mph14.5 kmh 30.09 in1019.0 mb 0.00 in0.0 mm 0.00 in0.0 mm 0.01 in0.3 mm
08:48 PM 43.3°F6.3°C 41.4°F5.2°C 93% 5.0 mph SSW8.0 kmh SSW 9.0 mph14.5 kmh 30.09 in1019.0 mb 0.00 in0.0 mm 0.00 in0.0 mm 0.01 in0.3 mm
08:51 PM 43.3°F6.3°C 41.4°F5.2°C 93% 5.0 mph SSW8.0 kmh SSW 9.0 mph14.5 kmh 30.09 in1019.0 mb 0.00 in0.0 mm 0.00 in0.0 mm 0.01 in0.3 mm
08:54 PM 43.3°F6.3°C 41.4°F5.2°C 93% 5.0 mph SW8.0 kmh SW 12.0 mph19.3 kmh 30.09 in1019.0 mb 0.00 in0.0 mm 0.00 in0.0 mm 0.01 in0.3 mm
08:57 PM 43.5°F6.4°C 41.5°F5.3°C 93% 5.0 mph SW8.0 kmh SW 12.0 mph19.3 kmh 30.09 in1019.0 mb 0.00 in0.0 mm 0.00 in0.0 mm 0.01 in0.3 mm
09:00 PM 43.5°F6.4°C 41.5°F5.3°C 93% 6.0 mph SW9.7 kmh SW 12.0 mph19.3 kmh 30.09 in1019.0 mb 0.00 in0.0 mm 0.00 in0.0 mm 0.01 in0.3 mm
09:03 PM 43.5°F6.4°C 41.7°F5.4°C 93% 6.0 mph SW9.7 kmh SW 13.0 mph20.9 kmh 30.08 in1018.6 mb 0.00 in0.0 mm 0.00 in0.0 mm 0.01 in0.3 mm
09:06 PM 43.5°F6.4°C 41.7°F5.4°C 93% 6.0 mph SW9.7 kmh SW 13.0 mph20.9 kmh 30.08 in1018.6 mb 0.00 in0.0 mm 0.00 in0.0 mm 0.01 in0.3 mm
09:09 PM 43.7°F6.5°C 41.7°F5.4°C 93% 6.0 mph SW9.7 kmh SW 13.0 mph20.9 kmh 30.08 in1018.6 mb 0.00 in0.0 mm 0.00 in0.0 mm 0.01 in0.3 mm
09:12 PM 43.7°F6.5°C 42.1°F5.6°C 94% 6.0 mph SW9.7 kmh SW 13.0 mph20.9 kmh 30.08 in1018.6 mb 0.00 in0.0 mm 0.00 in0.0 mm 0.01 in0.3 mm
09:15 PM 43.9°F6.6°C 42.3°F5.7°C 94% 6.0 mph SW9.7 kmh SW 13.0 mph20.9 kmh 30.08 in1018.6 mb 0.00 in0.0 mm 0.00 in0.0 mm 0.01 in0.3 mm
09:18 PM 43.9°F6.6°C 42.3°F5.7°C 94% 6.0 mph SW9.7 kmh SW 13.0 mph20.9 kmh 30.08 in1018.6 mb 0.00 in0.0 mm 0.00 in0.0 mm 0.01 in0.3 mm
09:21 PM 43.9°F6.6°C 42.3°F5.7°C 94% 6.0 mph SW9.7 kmh SW 13.0 mph20.9 kmh 30.08 in1018.6 mb 0.00 in0.0 mm 0.00 in0.0 mm 0.01 in0.3 mm
09:24 PM 43.9°F6.6°C 42.3°F5.7°C 94% 6.0 mph SSW9.7 kmh SSW 12.0 mph19.3 kmh 30.08 in1018.6 mb 0.00 in0.0 mm 0.00 in0.0 mm 0.01 in0.3 mm
09:27 PM 43.9°F6.6°C 42.3°F5.7°C 94% 6.0 mph SSW9.7 kmh SSW 12.0 mph19.3 kmh 30.07 in1018.3 mb 0.00 in0.0 mm 0.00 in0.0 mm 0.01 in0.3 mm
09:30 PM 43.9°F6.6°C 42.3°F5.7°C 94% 6.0 mph SSW9.7 kmh SSW 13.0 mph20.9 kmh 30.07 in1018.3 mb 0.00 in0.0 mm 0.00 in0.0 mm 0.01 in0.3 mm
09:33 PM 43.9°F6.6°C 42.3°F5.7°C 94% 6.0 mph SSW9.7 kmh SSW 16.0 mph25.7 kmh 30.07 in1018.3 mb 0.00 in0.0 mm 0.00 in0.0 mm 0.01 in0.3 mm
09:36 PM 43.9°F6.6°C 42.3°F5.7°C 94% 6.0 mph SSW9.7 kmh SSW 16.0 mph25.7 kmh 30.08 in1018.6 mb 0.00 in0.0 mm 0.00 in0.0 mm 0.01 in0.3 mm
09:39 PM 43.9°F6.6°C 42.3°F5.7°C 94% 5.0 mph SSW8.0 kmh SSW 16.0 mph25.7 kmh 30.08 in1018.6 mb 0.00 in0.0 mm 0.00 in0.0 mm 0.01 in0.3 mm
09:42 PM 44.1°F6.7°C 42.4°F5.8°C 94% 5.0 mph SW8.0 kmh SW 10.0 mph16.1 kmh 30.07 in1018.3 mb 0.00 in0.0 mm 0.00 in0.0 mm 0.01 in0.3 mm
09:45 PM 44.1°F6.7°C 42.4°F5.8°C 94% 5.0 mph SW8.0 kmh SW 9.0 mph14.5 kmh 30.07 in1018.3 mb 0.00 in0.0 mm 0.00 in0.0 mm 0.01 in0.3 mm
09:48 PM 44.1°F6.7°C 42.4°F5.8°C 94% 5.0 mph SW8.0 kmh SW 9.0 mph14.5 kmh 30.07 in1018.3 mb 0.00 in0.0 mm 0.00 in0.0 mm 0.01 in0.3 mm
09:51 PM 44.1°F6.7°C 42.4°F5.8°C 94% 6.0 mph SW9.7 kmh SW 14.0 mph22.5 kmh 30.07 in1018.3 mb 0.00 in0.0 mm 0.00 in0.0 mm 0.01 in0.3 mm
09:54 PM 44.1°F6.7°C 42.4°F5.8°C 94% 6.0 mph SW9.7 kmh SW 14.0 mph22.5 kmh 30.07 in1018.3 mb 0.00 in0.0 mm 0.00 in0.0 mm 0.01 in0.3 mm
09:57 PM 44.2°F6.8°C 42.6°F5.9°C 94% 6.0 mph SW9.7 kmh SW 14.0 mph22.5 kmh 30.07 in1018.3 mb 0.00 in0.0 mm 0.00 in0.0 mm 0.01 in0.3 mm
10:00 PM 44.2°F6.8°C 42.6°F5.9°C 94% 6.0 mph SW9.7 kmh SW 12.0 mph19.3 kmh 30.07 in1018.3 mb 0.00 in0.0 mm 0.00 in0.0 mm 0.01 in0.3 mm
10:03 PM 44.2°F6.8°C 42.6°F5.9°C 94% 6.0 mph SW9.7 kmh SW 12.0 mph19.3 kmh 30.06 in1017.9 mb 0.00 in0.0 mm 0.00 in0.0 mm 0.01 in0.3 mm
10:06 PM 44.2°F6.8°C 42.6°F5.9°C 94% 6.0 mph SW9.7 kmh SW 11.0 mph17.7 kmh 30.06 in1017.9 mb 0.00 in0.0 mm 0.00 in0.0 mm 0.01 in0.3 mm
10:09 PM 44.4°F6.9°C 42.8°F6.0°C 94% 6.0 mph SW9.7 kmh SW 11.0 mph17.7 kmh 30.06 in1017.9 mb 0.00 in0.0 mm 0.00 in0.0 mm 0.01 in0.3 mm
10:12 PM 44.4°F6.9°C 42.8°F6.0°C 94% 6.0 mph SW9.7 kmh SW 13.0 mph20.9 kmh 30.06 in1017.9 mb 0.00 in0.0 mm 0.00 in0.0 mm 0.01 in0.3 mm
10:15 PM 44.4°F6.9°C 42.8°F6.0°C 94% 6.0 mph SW9.7 kmh SW 13.0 mph20.9 kmh 30.06 in1017.9 mb 0.00 in0.0 mm 0.00 in0.0 mm 0.01 in0.3 mm
10:18 PM 44.4°F6.9°C 42.8°F6.0°C 94% 6.0 mph SW9.7 kmh SW 13.0 mph20.9 kmh 30.06 in1017.9 mb 0.00 in0.0 mm 0.00 in0.0 mm 0.01 in0.3 mm
10:21 PM 44.4°F6.9°C 42.8°F6.0°C 94% 6.0 mph SW9.7 kmh SW 11.0 mph17.7 kmh 30.06 in1017.9 mb 0.00 in0.0 mm 0.00 in0.0 mm 0.01 in0.3 mm
10:24 PM 44.6°F7.0°C 43.0°F6.1°C 94% 6.0 mph SW9.7 kmh SW 16.0 mph25.7 kmh 30.06 in1017.9 mb 0.00 in0.0 mm 0.00 in0.0 mm 0.01 in0.3 mm
10:27 PM 44.6°F7.0°C 43.0°F6.1°C 94% 7.0 mph SW11.3 kmh SW 16.0 mph25.7 kmh 30.05 in1017.6 mb 0.00 in0.0 mm 0.00 in0.0 mm 0.01 in0.3 mm
10:30 PM 44.6°F7.0°C 43.0°F6.1°C 94% 7.0 mph SW11.3 kmh SW 16.0 mph25.7 kmh 30.05 in1017.6 mb 0.00 in0.0 mm 0.00 in0.0 mm 0.01 in0.3 mm
10:33 PM 44.8°F7.1°C 43.2°F6.2°C 94% 6.0 mph SW9.7 kmh SW 12.0 mph19.3 kmh 30.05 in1017.6 mb 0.00 in0.0 mm 0.00 in0.0 mm 0.01 in0.3 mm
10:36 PM 44.8°F7.1°C 43.2°F6.2°C 94% 6.0 mph SW9.7 kmh SW 12.0 mph19.3 kmh 30.05 in1017.6 mb 0.00 in0.0 mm 0.00 in0.0 mm 0.01 in0.3 mm
10:39 PM 44.8°F7.1°C 43.2°F6.2°C 94% 6.0 mph SW9.7 kmh SW 11.0 mph17.7 kmh 30.05 in1017.6 mb 0.00 in0.0 mm 0.00 in0.0 mm 0.01 in0.3 mm
10:42 PM 44.8°F7.1°C 43.2°F6.2°C 94% 6.0 mph SW9.7 kmh SW 15.0 mph24.1 kmh 30.05 in1017.6 mb 0.00 in0.0 mm 0.00 in0.0 mm 0.01 in0.3 mm
10:45 PM 44.8°F7.1°C 43.2°F6.2°C 94% 6.0 mph SW9.7 kmh SW 15.0 mph24.1 kmh 30.05 in1017.6 mb 0.00 in0.0 mm 0.00 in0.0 mm 0.01 in0.3 mm
10:48 PM 44.8°F7.1°C 43.5°F6.4°C 95% 6.0 mph SW9.7 kmh SW 15.0 mph24.1 kmh 30.05 in1017.6 mb 0.00 in0.0 mm 0.00 in0.0 mm 0.01 in0.3 mm
10:51 PM 45.0°F7.2°C 43.5°F6.4°C 95% 6.0 mph SW9.7 kmh SW 15.0 mph24.1 kmh 30.05 in1017.6 mb 0.00 in0.0 mm 0.00 in0.0 mm 0.01 in0.3 mm
10:54 PM 45.0°F7.2°C 43.5°F6.4°C 95% 6.0 mph SW9.7 kmh SW 12.0 mph19.3 kmh 30.05 in1017.6 mb 0.00 in0.0 mm 0.00 in0.0 mm 0.01 in0.3 mm
10:57 PM 45.0°F7.2°C 43.7°F6.5°C 95% 6.0 mph SW9.7 kmh SW 14.0 mph22.5 kmh 30.05 in1017.6 mb 0.00 in0.0 mm 0.00 in0.0 mm 0.01 in0.3 mm
11:00 PM 45.0°F7.2°C 43.7°F6.5°C 95% 7.0 mph SSW11.3 kmh SSW 14.0 mph22.5 kmh 30.05 in1017.6 mb 0.00 in0.0 mm 0.00 in0.0 mm 0.01 in0.3 mm
11:03 PM 45.0°F7.2°C 43.7°F6.5°C 95% 7.0 mph SSW11.3 kmh SSW 16.0 mph25.7 kmh 30.05 in1017.6 mb 0.00 in0.0 mm 0.00 in0.0 mm 0.01 in0.3 mm
11:06 PM 45.1°F7.3°C 43.7°F6.5°C 95% 7.0 mph SSW11.3 kmh SSW 16.0 mph25.7 kmh 30.05 in1017.6 mb 0.00 in0.0 mm 0.00 in0.0 mm 0.01 in0.3 mm
11:09 PM 45.1°F7.3°C 43.7°F6.5°C 95% 7.0 mph SSW11.3 kmh SSW 16.0 mph25.7 kmh 30.04 in1017.3 mb 0.00 in0.0 mm 0.00 in0.0 mm 0.01 in0.3 mm
11:12 PM 45.1°F7.3°C 43.7°F6.5°C 95% 7.0 mph SSW11.3 kmh SSW 15.0 mph24.1 kmh 30.04 in1017.3 mb 0.00 in0.0 mm 0.00 in0.0 mm 0.01 in0.3 mm
11:15 PM 45.1°F7.3°C 43.7°F6.5°C 95% 8.0 mph SSW12.9 kmh SSW 16.0 mph25.7 kmh 30.04 in1017.3 mb 0.00 in0.0 mm 0.00 in0.0 mm 0.01 in0.3 mm
11:18 PM 45.1°F7.3°C 43.9°F6.6°C 95% 8.0 mph SSW12.9 kmh SSW 16.0 mph25.7 kmh 30.04 in1017.3 mb 0.00 in0.0 mm 0.00 in0.0 mm 0.01 in0.3 mm
11:21 PM 45.1°F7.3°C 43.9°F6.6°C 95% 7.0 mph SSW11.3 kmh SSW 16.0 mph25.7 kmh 30.04 in1017.3 mb 0.00 in0.0 mm 0.00 in0.0 mm 0.01 in0.3 mm
11:24 PM 45.1°F7.3°C 43.9°F6.6°C 95% 8.0 mph SSW12.9 kmh SSW 16.0 mph25.7 kmh 30.04 in1017.3 mb 0.00 in0.0 mm 0.00 in0.0 mm 0.01 in0.3 mm
11:27 PM 45.1°F7.3°C 43.9°F6.6°C 95% 7.0 mph SSW11.3 kmh SSW 15.0 mph24.1 kmh 30.04 in1017.3 mb 0.00 in0.0 mm 0.00 in0.0 mm 0.01 in0.3 mm
11:30 PM 45.1°F7.3°C 43.9°F6.6°C 95% 8.0 mph SSW12.9 kmh SSW 15.0 mph24.1 kmh 30.04 in1017.3 mb 0.00 in0.0 mm 0.00 in0.0 mm 0.01 in0.3 mm
11:33 PM 45.1°F7.3°C 43.9°F6.6°C 95% 7.0 mph SSW11.3 kmh SSW 15.0 mph24.1 kmh 30.04 in1017.3 mb 0.00 in0.0 mm 0.00 in0.0 mm 0.01 in0.3 mm
11:36 PM 45.1°F7.3°C 43.9°F6.6°C 95% 8.0 mph SSW12.9 kmh SSW 18.0 mph29.0 kmh 30.03 in1016.9 mb 0.00 in0.0 mm 0.00 in0.0 mm 0.01 in0.3 mm
11:39 PM 45.3°F7.4°C 43.9°F6.6°C 95% 7.0 mph SSW11.3 kmh SSW 18.0 mph29.0 kmh 30.04 in1017.3 mb 0.00 in0.0 mm 0.00 in0.0 mm 0.01 in0.3 mm
11:42 PM 45.3°F7.4°C 43.9°F6.6°C 95% 7.0 mph SSW11.3 kmh SSW 18.0 mph29.0 kmh 30.03 in1016.9 mb 0.00 in0.0 mm 0.00 in0.0 mm 0.01 in0.3 mm
11:45 PM 45.3°F7.4°C 44.2°F6.8°C 96% 7.0 mph SSW11.3 kmh SSW 15.0 mph24.1 kmh 30.03 in1016.9 mb 0.00 in0.0 mm 0.00 in0.0 mm 0.01 in0.3 mm
11:48 PM 45.3°F7.4°C 44.2°F6.8°C 96% 7.0 mph SSW11.3 kmh SSW 12.0 mph19.3 kmh 30.03 in1016.9 mb 0.00 in0.0 mm 0.00 in0.0 mm 0.01 in0.3 mm
11:51 PM 45.3°F7.4°C 44.2°F6.8°C 96% 8.0 mph SSW12.9 kmh SSW 13.0 mph20.9 kmh 30.03 in1016.9 mb 0.00 in0.0 mm 0.00 in0.0 mm 0.01 in0.3 mm
11:54 PM 45.3°F7.4°C 44.2°F6.8°C 96% 8.0 mph SSW12.9 kmh SSW 13.0 mph20.9 kmh 30.03 in1016.9 mb 0.01 in0.3 mm 0.20 in5.1 mm 0.02 in0.5 mm
11:57 PM 45.3°F7.4°C 44.2°F6.8°C 96% 8.0 mph SSW12.9 kmh SSW 14.0 mph22.5 kmh 30.03 in1016.9 mb 0.01 in0.3 mm 0.00 in0.0 mm 0.02 in0.5 mm